ADDS METAR Data INFO
IDs: Format: Raw Decoded Include TAF

Data at: 2255 UTC 22 Jun 2018

KHHV 222235Z AUTO 18008KT 10SM FEW031 29/25 A2991 RMK A01
KHHV 222215Z AUTO 18009KT 10SM FEW019 FEW031 29/25 A2991 RMK A01
KHHV 222155Z AUTO 18008KT 10SM FEW019 FEW025 FEW036 29/25 A2992 RMK A01
KHHV 222135Z AUTO 18010KT 10SM FEW021 FEW026 SCT036 29/25 A2993 RMK A01
KHHV 222115Z AUTO 18008KT 10SM FEW020 29/25 A2993 RMK A01
KHHV 222055Z AUTO 17008KT 140V200 10SM FEW018 29/24 A2993 RMK A01
KHHV 222035Z AUTO 18006KT 10SM FEW018 29/24 A2993 RMK A01
KHHV 222015Z AUTO 18009KT 10SM FEW018 29/24 A2993 RMK A01
KHHV 221955Z AUTO 19009KT 10SM CLR 29/24 A2994 RMK A01
KHHV 221935Z AUTO 19007KT 160V220 CLR 29/24 A2995 RMK A01
KHHV 221915Z AUTO 19009G14KT 10SM CLR 29/24 A2994 RMK A01
KHHV 221855Z AUTO 18010G15KT 160V220 10SM CLR 29/24 A2995 RMK A01
KHHV 221835Z AUTO 18013KT 10SM CLR 29/24 A2995 RMK A01
KHHV 221815Z AUTO 18009G15KT 10SM CLR 29/24 A2995 RMK A01
KHHV 221755Z AUTO 18013KT 10SM CLR 29/24 A2996 RMK A01
KHHV 221735Z AUTO 18013KT 10SM CLR 29/24 A2996 RMK A01
KHHV 221715Z AUTO 18013KT 10SM FEW021 29/24 A2996 RMK A01
KHHV 221655Z AUTO 19010G16KT 10SM FEW019 FEW025 29/24 A2997 RMK A01
KHHV 221635Z AUTO 17011KT 10SM CLR 29/24 A2997 RMK A01
KHHV 221615Z AUTO 18011KT 10SM CLR 29/24 A2998 RMK A01
KHHV 221555Z AUTO 16006G13KT 10SM FEW019 FEW027 FEW034 29/24 A2998 RMK A01
KHHV 221535Z AUTO 17007G13KT 10SM FEW019 FEW024 28/24 A2998 RMK A01
KHHV 221515Z AUTO 16006G12KT 10SM SCT019 SCT024 28/24 A2997 RMK A01
KHHV 221455Z AUTO VRB06G13KT 10SM FEW020 28/24 A2997 RMK A01
KHHV 221435Z AUTO 18010KT 10SM FEW020 28/24 A2997 RMK A01
KHHV 221415Z AUTO 16007G12KT 10SM CLR 28/24 A2997 RMK A01
KHHV 221355Z AUTO 17008G14KT 150V210 10SM CLR 28/24 A2997 RMK A01
KHHV 221335Z AUTO 18009G14KT 150V210 10SM CLR 28/24 A2996 RMK A01
KHHV 221315Z AUTO 18009KT 150V210 10SM CLR 28/24 A2996 RMK A01
KHHV 221255Z AUTO 20010KT 10SM CLR 28/23 A2996 RMK A01
KHHV 221235Z AUTO 19010KT 10SM FEW021 28/23 A2996 RMK A01
KHHV 221215Z AUTO 18011G17KT 10SM FEW021 28/23 A2995 RMK A01
KHHV 221155Z AUTO 18014KT 10SM SCT021 28/23 A2994 RMK A01
KHHV 221135Z AUTO 18012KT 10SM FEW021 28/23 A2994 RMK A01
KHHV 221115Z AUTO 18012KT 10SM SCT020 28/23 A2994 RMK A01
KHHV 221055Z AUTO 16007G13KT 130V190 10SM SCT019 SCT024 28/24 A2993 RMK A01
KHHV 221035Z AUTO 16009G14KT 10SM BKN020 BKN026 28/24 A2993 RMK A01
KHHV 221015Z AUTO 16009KT 10SM BKN019 BKN024 28/24 A2992 RMK A01
KHHV 220955Z AUTO 15012KT 10SM BKN019 BKN023 28/24 A2992 RMK A01
KHHV 220935Z AUTO 15011KT 10SM FEW017 SCT024 28/24 A2991 RMK A01
KHHV 220915Z AUTO 17007G13KT 10SM SCT018 BKN024 28/24 A2991 RMK A01
KHHV 220855Z AUTO 16007G14KT 10SM SCT017 BKN023 28/24 A2991 RMK A01
KHHV 220835Z AUTO 15012KT 10SM SCT016 SCT023 28/25 A2991 RMK A01
KHHV 220815Z AUTO 16009G15KT 130V210 10SM FEW020 28/24 A2991 RMK A01
KHHV 220755Z AUTO 16009KT 10SM SCT017 BKN023 28/24 A2992 RMK A01
KHHV 220735Z AUTO 15010KT 10SM BKN017 BKN024 28/24 A2992 RMK A01
KHHV 220715Z AUTO 15011KT 10SM FEW016 SCT024 28/25 A2993 RMK A01
KHHV 220655Z AUTO 15013KT 10SM FEW016 FEW024 28/24 A2993 RMK A01
KHHV 220635Z AUTO 15012KT 10SM CLR 28/25 A2994 RMK A01
KHHV 220615Z AUTO 14009G15KT 10SM 28/25 A2994 RMK A01
KHHV 220555Z AUTO 15012KT 10SM 28/25 A2994 RMK A01
KHHV 220535Z AUTO 14011G16KT 10SM 28/25 A2994 RMK A01
KHHV 220515Z AUTO 15011KT 10SM 28/25 A2994 RMK A01
KHHV 220455Z AUTO 14011G17KT 10SM 28/25 A2994 RMK A01
KHHV 220435Z AUTO 14011KT 10SM 28/25 A2994 RMK A01
KHHV 220415Z AUTO 14011KT 10SM 28/26 A2993 RMK A01
KHHV 220355Z AUTO 15013KT 10SM 28/25 A2993 RMK A01
KHHV 220335Z AUTO 13011G17KT 10SM 28/26 A2992 RMK A01
KHHV 220315Z AUTO 13012G17KT 10SM 28/26 A2992 RMK A01
KHHV 220255Z AUTO 14012KT 10SM 28/26 A2991 RMK A01
KHHV 220235Z AUTO 13013KT 10SM 28/26 A2990 RMK A01
KHHV 220215Z AUTO 13012KT 10SM 28/26 A2990 RMK A01
KHHV 220155Z AUTO 13008G17KT 110V180 10SM FEW016 FEW021 28/26 A2989 RMK A01
KHHV 220135Z AUTO 14008G18KT 120V180 10SM FEW015 SCT020 28/26 A2989 RMK A01
KHHV 220115Z AUTO VRB09G18KT 10SM FEW014 SCT021 29/26 A2989 RMK A01
KHHV 220055Z AUTO 13007G15KT 100V180 10SM FEW013 29/26 A2989 RMK A01
KHHV 220035Z AUTO 14009G18KT 120V200 10SM CLR 29/26 A2988 RMK A01
KHHV 220010Z AUTO 13009G18KT 100V200 10SM CLR 29/26 A2988 RMK A01
KHHV 212355Z AUTO 13010G17KT 110V170 10SM CLR 29/26 A2988 RMK A01
KHHV 212335Z AUTO 13010G17KT 090V170 10SM CLR 29/26 A2988 RMK A01
KHHV 212315Z AUTO 14011G16KT 10SM CLR 29/26 A2988 RMK A01
KHHV 212255Z AUTO 14007G17KT 100V160 10SM CLR 30/26 A2988 RMK A01
KHHV 212235Z AUTO 14008G15KT 100V210 10SM CLR 30/26 A2989 RMK A01
KHHV 212215Z AUTO VRB06G13KT 10SM CLR 30/26 A2989 RMK A01
KHHV 212155Z AUTO 13007G15KT 090V200 10SM CLR 30/26 A2989 RMK A01
KHHV 212135Z AUTO 13011KT 10SM CLR 30/25 A2989 RMK A01
KHHV 212115Z AUTO 13008KT 10SM CLR 31/26 A2991 RMK A01
KHHV 212055Z AUTO 14009KT 10SM FEW016 FEW020 FEW027 30/25 A2991 RMK A01
KHHV 212035Z AUTO 13008G13KT 080V160 10SM FEW018 SCT025 SCT029 31/25 A2992 RMK A01
KHHV 212015Z AUTO VRB05G13KT 10SM FEW020 SCT024 SCT029 31/25 A2992 RMK A01
KHHV 211955Z AUTO 12007G13KT 040V170 10SM FEW016 FEW021 31/25 A2992 RMK A01
KHHV 211935Z AUTO VRB06G15KT 10SM FEW015 FEW022 32/25 A2992 RMK A01
KHHV 211915Z AUTO 13009G15KT 10SM FEW019 31/25 A2992 RMK A01
KHHV 211855Z AUTO 13009G16KT 10SM CLR 31/25 A2992 RMK A01
KHHV 211835Z AUTO 13011G16KT 10SM CLR 31/25 A2992 RMK A01
KHHV 211815Z AUTO 14010G15KT 10SM CLR 31/25 A2992 RMK A01
KHHV 211755Z AUTO 14010G16KT 10SM CLR 31/25 A2992 RMK A01
KHHV 211735Z AUTO 14010G15KT 10SM FEW019 30/25 A2992 RMK A01
KHHV 211715Z AUTO 15013KT 10SM FEW021 30/25 A2992 RMK A01
KHHV 211655Z AUTO 15013KT 10SM FEW022 FEW026 FEW031 30/25 A2992 RMK A01
KHHV 211635Z AUTO 15014KT 10SM FEW018 SCT025 SCT031 30/25 A2992 RMK A01
KHHV 211615Z AUTO 15013KT 10SM SCT018 SCT024 30/25 A2992 RMK A01
KHHV 211555Z AUTO 14011G16KT 10SM FEW016 FEW021 SCT029 30/25 A2992 RMK A01
KHHV 211535Z AUTO 15012G19KT 10SM SCT019 SCT025 29/25 A2991 RMK A01
KHHV 211515Z AUTO 15013KT 10SM SCT020 SCT027 SCT031 29/25 A2991 RMK A01
KHHV 211455Z AUTO 15015KT 10SM FEW016 SCT022 SCT027 29/25 A2990 RMK A01
KHHV 211435Z AUTO 15015KT 10SM FEW019 SCT025 SCT030 29/24 A2990 RMK A01
KHHV 211355Z AUTO 16012G20KT 10SM SCT020 SCT025 28/24 A2990 RMK A01
KHHV 211335Z AUTO 15016G23KT 10SM BKN022 28/24 A2989 RMK A01
KHHV 211315Z AUTO 15017KT 10SM SCT022 28/24 A2988 RMK A01
KHHV 211255Z AUTO 15018G24KT 10SM SCT021 SCT025 28/24 A2988 RMK A01
KHHV 211235Z AUTO 15019KT 10SM FEW019 28/24 A2988 RMK A01
KHHV 211215Z AUTO 15016G21KT 10SM FEW019 28/24 A2988 RMK A01
KHHV 211155Z AUTO 15016KT 10SM CLR 28/24 A2988 RMK A01
KHHV 211135Z AUTO 14016G21KT 10SM FEW021 FEW029 28/23 A2988 RMK A01
KHHV 211115Z AUTO 15014G21KT 10SM SCT021 BKN029 28/24 A2988 RMK A01
KHHV 211055Z AUTO 15016KT 10SM FEW020 SCT030 28/24 A2987 RMK A01
KHHV 211035Z AUTO 15018KT 10SM FEW019 SCT026 BKN031 28/23 A2987 RMK A01
KHHV 211015Z AUTO 15017KT 10SM FEW017 FEW022 OVC031 28/24 A2987 RMK A01
KHHV 210955Z AUTO 14014G20KT 10SM 28/24 A2986 RMK A01
KHHV 210935Z AUTO 14014G19KT 10SM 28/24 A2985 RMK A01
KHHV 210915Z AUTO 14011G18KT 10SM 28/24 A2985 RMK A01
KHHV 210855Z AUTO 13012G17KT 10SM 28/25 A2984 RMK A01
KHHV 210835Z AUTO 14013G19KT 10SM 28/25 A2985 RMK A01
KHHV 210815Z AUTO 14011G18KT 10SM 28/25 A2985 RMK A01
KHHV 210755Z AUTO 13013G18KT 10SM 28/25 A2985 RMK A01
KHHV 210735Z AUTO 13013G18KT 10SM 28/25 A2985 RMK A01
KHHV 210715Z AUTO 14015G21KT 10SM 28/25 A2986 RMK A01
KHHV 210655Z AUTO 14013KT 10SM 28/25 A2986 RMK A01
KHHV 210635Z AUTO 14014KT 10SM 28/25 A2987 RMK A01
KHHV 210615Z AUTO 14012KT 10SM 28/25 A2987 RMK A01
KHHV 210555Z AUTO 15014KT 10SM 29/25 A2987 RMK A01
KHHV 210535Z AUTO 15014KT 10SM 28/25 A2987 RMK A01
KHHV 210515Z AUTO 15014G19KT 10SM 28/25 A2987 RMK A01
KHHV 210455Z AUTO 14014G19KT 10SM 28/26 A2987 RMK A01
KHHV 210435Z AUTO 14013G20KT 10SM 28/26 A2987 RMK A01
KHHV 210415Z AUTO 15017KT 10SM 28/26 A2986 RMK A01
KHHV 210355Z AUTO 15015KT 10SM 28/26 A2986 RMK A01
KHHV 210335Z AUTO 15015KT 10SM 28/26 A2986 RMK A01
KHHV 210315Z AUTO 15015KT 10SM 28/26 A2985 RMK A01
KHHV 210255Z AUTO 15018KT 10SM 28/26 A2985 RMK A01
KHHV 210235Z AUTO 15016G23KT 10SM 28/26 A2984 RMK A01
KHHV 210215Z AUTO 15015G23KT 10SM 28/26 A2984 RMK A01
KHHV 210155Z AUTO 15015KT 10SM 28/26 A2984 RMK A01
KHHV 210135Z AUTO 16016G22KT 10SM FEW015 OVC029 28/26 A2984 RMK A01
KHHV 210115Z AUTO 16015G21KT 10SM FEW015 BKN031 28/26 A2984 RMK A01
KHHV 210055Z AUTO 15018KT 10SM FEW016 SCT022 BKN032 28/26 A2983 RMK A01
KHHV 210035Z AUTO 15015KT 10SM FEW016 FEW070 28/26 A2983 RMK A01
KHHV 210015Z AUTO 15015KT 10SM CLR 28/25 A2983 RMK A01
KHHV 202355Z AUTO 15016G21KT 10SM CLR 28/25 A2982 RMK A01
KHHV 202325Z AUTO 15012KT 10SM CLR 28/24 A2982 RMK A01
KHHV 202315Z AUTO 15010KT 10SM CLR 28/24 A2982 RMK A01
KHHV 202255Z AUTO 16010KT 10SM CLR 28/24 A2982 RMK A01
KHHV 202235Z AUTO 15012KT 10SM FEW050 FEW055 28/24 A2982 RMK A01
KHHV 202215Z AUTO 17009G14KT 10SM CLR 28/23 A2983 RMK A01
KHHV 202155Z AUTO 16011G17KT 10SM CLR 28/24 A2983 RMK A01
KHHV 202135Z AUTO 16011G18KT 10SM CLR 27/24 A2983 RMK A01
KHHV 202115Z AUTO 15014KT 10SM CLR 27/24 A2983 RMK A01
KHHV 202055Z AUTO 15012KT 10SM CLR 28/24 A2982 RMK A01
KHHV 202035Z AUTO 16009G16KT 10SM CLR 27/23 A2981 RMK A01
KHHV 202015Z AUTO 19010G20KT 3SM HZ FEW018 27/24 A2981 RMK A01
KHHV 201955Z AUTO 15017G24KT 10SM FEW016 30/26 A2983 RMK A01
KHHV 201935Z AUTO 16014G26KT 10SM FEW016 30/26 A2983 RMK A01
KHHV 201915Z AUTO 15019G28KT 10SM CLR 30/26 A2984 RMK A01
KHHV 201855Z AUTO 15018G26KT 10SM CLR 30/26 A2984 RMK A01
KHHV 201835Z AUTO 15020G26KT 10SM CLR 30/26 A2984 RMK A01
KHHV 201815Z AUTO 15024KT 10SM CLR 30/26 A2983 RMK A01
KHHV 201750Z AUTO 15020G27KT 10SM FEW015 30/26 A2984 RMK A01
KHHV 201735Z AUTO 15022KT 10SM FEW015 30/26 A2984 RMK A01
KHHV 201715Z AUTO 14017G23KT 10SM FEW015 30/26 A2984 RMK A01
KHHV 201655Z AUTO 14017G23KT 10SM CLR 30/26 A2984 RMK A01
KHHV 201635Z AUTO 14016G22KT 10SM CLR 30/26 A2984 RMK A01
KHHV 201615Z AUTO 14015G23KT 10SM FEW017 30/26 A2985 RMK A01
KHHV 201555Z AUTO 13013G19KT 10SM FEW016 29/26 A2985 RMK A01
KHHV 201535Z AUTO 14015G24KT 10SM FEW015 FEW022 SCT038 29/26 A2985 RMK A01
KHHV 201515Z AUTO 15020KT 10SM SCT017 SCT023 BKN038 29/25 A2985 RMK A01
KHHV 201455Z AUTO 14017G24KT 10SM SCT017 29/25 A2985 RMK A01
KHHV 201435Z AUTO 14017G25KT 10SM FEW016 29/25 A2985 RMK A01
KHHV 201415Z AUTO 14017G26KT 10SM SCT016 29/26 A2984 RMK A01
KHHV 201355Z AUTO 15021G27KT 10SM SCT015 29/26 A2984 RMK A01
KHHV 201335Z AUTO 15019G26KT 10SM FEW016 29/25 A2984 RMK A01
KHHV 201315Z AUTO 14017G25KT 10SM CLR 28/25 A2983 RMK A01
KHHV 201255Z AUTO 15020G26KT 10SM FEW017 FEW021 28/25 A2983 RMK A01
KHHV 201235Z AUTO 15022KT 10SM FEW016 SCT021 28/25 A2983 RMK A01
KHHV 201215Z AUTO 14017G27KT 10SM CLR 28/25 A2983 RMK A01
KHHV 201155Z AUTO 14019G26KT 10SM SCT120 28/25 A2982 RMK A01
KHHV 201135Z AUTO 14018G25KT 10SM FEW024 BKN120 28/25 A2981 RMK A01
KHHV 201115Z AUTO 14018G26KT 10SM FEW019 SCT026 OVC120 28/25 A2981 RMK A01
KHHV 201055Z AUTO 15019G27KT 10SM SCT020 BKN037 OVC120 28/25 A2982 RMK A01
KHHV 201035Z AUTO 15019KT 10SM SCT021 SCT120 28/24 A2982 RMK A01
KHHV 201015Z AUTO 15023KT 10SM FEW019 BKN024 BKN030 28/24 A2982 RMK A01
KHHV 200955Z AUTO 15021G28KT 10SM SCT020 BKN026 OVC033 28/24 A2982 RMK A01
KHHV 200935Z AUTO 15023KT 10SM SCT021 OVC034 28/24 A2983 RMK A01
KHHV 200915Z AUTO 15021G27KT 10SM SCT019 SCT027 OVC034 28/24 A2982 RMK A01
KHHV 200855Z AUTO 14020G29KT 10SM SCT020 BKN028 OVC033 28/24 A2982 RMK A01
KHHV 200835Z AUTO 15025G31KT 10SM SCT022 OVC028 28/24 A2982 RMK A01
KHHV 200815Z AUTO 15022G30KT 10SM SCT022 OVC030 28/24 A2982 RMK A01
KHHV 200755Z AUTO 15025KT 10SM SCT020 BKN028 28/25 A2982 RMK A01
KHHV 200735Z AUTO 15022G29KT 10SM SCT018 BKN024 BKN028 28/25 A2983 RMK A01
KHHV 200715Z AUTO 14020G28KT 10SM FEW018 SCT025 SCT030 28/25 A2983 RMK A01
KHHV 200655Z AUTO 15025G31KT 10SM SCT020 SCT026 28/24 A2983 RMK A01
KHHV 200635Z AUTO 15025G32KT 10SM BKN019 BKN025 28/25 A2983 RMK A01
KHHV 200615Z AUTO 14017G25KT 10SM SCT018 BKN025 28/25 A2984 RMK A01
KHHV 200555Z AUTO 14019G27KT 10SM FEW018 28/25 A2985 RMK A01
KHHV 200535Z AUTO 14020G27KT 10SM SCT018 28/25 A2985 RMK A01
KHHV 200515Z AUTO 14014G26KT 10SM BKN018 28/25 A2986 RMK A01
KHHV 200455Z AUTO 13016G28KT 10SM SCT016 SCT021 28/25 A2986 RMK A01
KHHV 200435Z AUTO 13015G25KT 080V170 10SM FEW016 FEW027 SCT055 28/25 A2987 RMK A01
KHHV 200415Z AUTO 13014G23KT 10SM FEW036 BKN055 BKN070 28/24 A2987 RMK A01
KHHV 200355Z AUTO 14016G21KT 10SM BKN055 OVC065 28/24 A2987 RMK A01
KHHV 200335Z AUTO 14015KT 10SM FEW046 BKN050 OVC065 28/24 A2988 RMK A01
KHHV 200315Z AUTO 14014G19KT 10SM FEW040 BKN048 BKN065 27/24 A2988 RMK A01
KHHV 200255Z AUTO 14011G18KT 110V190 10SM BKN050 OVC055 27/24 A2988 RMK A01
KHHV 200235Z AUTO 14013KT 10SM OVC050 27/24 A2988 RMK A01
KHHV 200215Z AUTO 14013KT 10SM BKN050 BKN055 OVC075 27/24 A2987 RMK A01
KHHV 200155Z AUTO 15015KT 10SM OVC075 27/23 A2987 RMK A01
KHHV 200135Z AUTO 15014KT 10SM FEW013 SCT070 SCT100 26/24 A2986 RMK A01
KHHV 200115Z AUTO 14012G21KT 10SM FEW013 FEW090 26/24 A2986 RMK A01
KHHV 200055Z AUTO 15018KT 10SM FEW014 BKN080 BKN090 26/25 A2986 RMK A01
KHHV 200035Z AUTO 15012KT 10SM SCT080 SCT090 26/25 A2985 RMK A01
KHHV 200015Z AUTO 15015KT 10SM FEW045 FEW060 FEW070 25/25 A2984 RMK A01
KHHV 192355Z AUTO 16010G20KT 9SM FEW009 SCT025 BKN045 25/25 A2985 RMK A01
KHHV 192335Z AUTO 16013G23KT 3SM BR FEW009 BKN013 OVC027 25/25 A2986 RMK A01
KHHV 192315Z AUTO 16012G19KT 8SM SCT009 BKN013 OVC029 24/24 A2986 RMK A01
KHHV 192255Z AUTO 17008G14KT 130V200 8SM BKN007 BKN019 OVC029 24/24 A2985 RMK A01
KHHV 192235Z AUTO 20010G23KT 1/4SM FG OVC005 24/24 A2986 RMK A01
KHHV 192215Z AUTO 22017G24KT 1/4SM FG OVC006 24/24 A2986 RMK A01
KHHV 192155Z AUTO 22010G19KT 200V260 1/2SM BR OVC005 24/24 A2985 RMK A01
KHHV 192135Z AUTO 23012G20KT 170V240 1 1/4SM HZ SCT005 BKN011 OVC033 26/23 A2987 RMK A01
KHHV 192115Z AUTO 14018KT 10SM FEW019 BKN031 BKN039 29/26 A2985 RMK A01
KHHV 192055Z AUTO 14016G27KT 10SM FEW030 SCT055 BKN080 29/26 A2985 RMK A01
KHHV 192035Z AUTO 14019G27KT 10SM FEW017 SCT024 SCT055 29/26 A2985 RMK A01
KHHV 192015Z AUTO 14019G24KT 10SM FEW016 SCT023 SCT029 29/26 A2985 RMK A01
KHHV 191955Z AUTO 14019G26KT 10SM SCT017 SCT021 29/26 A2985 RMK A01
KHHV 191935Z AUTO 13015G22KT 10SM SCT019 29/26 A2986 RMK A01
KHHV 191915Z AUTO 13017G25KT 10SM FEW015 FEW023 29/26 A2985 RMK A01
KHHV 191855Z AUTO 14018G25KT 10SM FEW015 FEW023 FEW041 29/26 A2986 RMK A01
KHHV 191830Z AUTO 14018G25KT 10SM FEW015 SCT026 BKN070 29/26 A2987 RMK A01
KHHV 191815Z AUTO 14018G27KT 10SM FEW016 SCT022 BKN028 29/26 A2987 RMK A01
KHHV 191755Z AUTO 15021G26KT 10SM FEW016 SCT021 SCT027 29/26 A2988 RMK A01
KHHV 191735Z AUTO 15021G26KT 10SM FEW028 28/26 A2988 RMK A01
KHHV 191715Z AUTO 15022KT 10SM FEW022 BKN028 BKN036 28/26 A2988 RMK A01
KHHV 191650Z AUTO 15021G27KT 10SM FEW021 FEW027 SCT035 28/25 A2989 RMK A01
KHHV 191635Z AUTO 15022G28KT 10SM FEW075 28/27 A2988 RMK A01
KHHV 191615Z AUTO 15019G25KT 10SM FEW019 FEW046 28/27 A2988 RMK A01
KHHV 191555Z AUTO 15020KT 10SM SCT017 SCT021 BKN046 28/27 A2988 RMK A01
KHHV 191535Z AUTO 15022KT 10SM SCT017 BKN026 BKN048 27/27 A2988 RMK A01
KHHV 191515Z AUTO 16015KT 7SM FEW018 BKN032 BKN060 26/26 A2989 RMK A01
KHHV 191455Z AUTO 16010G15KT 9SM SCT030 BKN037 BKN055 25/24 A2988 RMK A01
KHHV 191435Z AUTO 18031KT 3/4SM BR BKN005 OVC033 24/24 A2988 RMK A01
KHHV 191415Z AUTO 22014G31KT 2SM BR FEW007 SCT033 BKN044 25/23 A2989 RMK A01
KHHV 191355Z AUTO 15019KT 10SM SCT015 SCT047 27/27 A2988 RMK A01
KHHV 191335Z AUTO 16008G16KT 10SM BKN010 OVC014 26/26 A2989 RMK A01
KHHV 191315Z AUTO VRB05G11KT 6SM BR BKN010 OVC027 25/25 A2990 RMK A01
KHHV 191255Z AUTO VRB04G10KT 1 3/4SM BR SCT005 BKN029 OVC034 25/25 A2990 RMK A01
KHHV 191235Z AUTO 24008KT 180V260 24/24 A2990 RMK A01
KHHV 191215Z AUTO 15016G34KT M1/4SM FG OVC005 24/24 A2991 RMK A01
KHHV 191155Z AUTO 21007G17KT 180V260 3/4SM BR OVC005 24/24 A2990 RMK A01
KHHV 191135Z AUTO 21010G26KT 1/4SM FG OVC005 24/24 A2990 RMK A01
KHHV 191115Z AUTO 15012G28KT 3/4SM BR BKN005 OVC022 24/24 A2989 RMK A01
KHHV 191055Z AUTO 12/12000012KT 4SM BR SCT031 BKN060 OVC075 25/25 A2989 RMK A01
KHHV 191035Z AUTO 18011KT 6SM BR FEW006 SCT026 BKN033 25/25 A2989 RMK A01
KHHV 191015Z AUTO 19011G17KT 3SM BR SCT006 SCT010 OVC032 24/24 A2988 RMK A01
KHHV 190955Z AUTO 20016G26KT 1SM BR 24/24 A2988 RMK A01
KHHV 190935Z AUTO 22012G28KT 1/4SM FG 24/24 A2989 RMK A01
KHHV 190915Z AUTO 17009G17KT 7SM FEW005 BKN030 OVC120 25/25 A2988 RMK A01
KHHV 190855Z AUTO 17012G20KT 4SM BR SCT031 BKN046 OVC120 25/24 A2987 RMK A01
KHHV 190835Z AUTO 15019KT 10SM SCT034 BKN045 OVC075 26/25 A2987 RMK A01
KHHV 190815Z AUTO 15017G22KT 10SM BKN033 BKN042 OVC110 25/25 A2988 RMK A01
KHHV 190755Z AUTO 14013KT 10SM SCT039 BKN050 OVC110 25/25 A2988 RMK A01
KHHV 190735Z AUTO 15015KT 10SM FEW031 BKN037 OVC060 25/25 A2989 RMK A01
KHHV 190715Z AUTO 15013KT 10SM BKN031 OVC038 25/25 A2989 RMK A01
KHHV 190655Z AUTO 15017KT 5SM BR FEW014 BKN032 OVC055 24/24 A2990 RMK A01
KHHV 190635Z AUTO 19018G25KT 8SM FEW007 SCT016 BKN032 25/25 A2991 RMK A01
KHHV 190615Z AUTO 21009G19KT 190V260 3SM BR BKN008 BKN014 OVC031 25/25 A2992 RMK A01
KHHV 190555Z AUTO 18017KT 1 3/4SM BR BKN007 BKN017 OVC032 25/25 A2992 RMK A01
KHHV 190535Z AUTO 15022G28KT 1/2SM FG OVC005 25/25 A2993 RMK A01
KHHV 190515Z AUTO 18021KT 1 1/4SM BR BKN005 BKN011 OVC029 25/25 A2994 RMK A01
KHHV 190455Z AUTO 18031G42KT M1/4SM FG 25/24 A2993 RMK A01
KHHV 190435Z AUTO 14015G23KT 9SM SCT012 BKN020 BKN037 27/25 A2993 RMK A01
KHHV 190415Z AUTO 13014G25KT 100V160 10SM FEW050 SCT060 BKN070 27/24 A2993 RMK A01
KHHV 190355Z AUTO 12020G28KT 10SM BKN060 BKN070 OVC100 27/23 A2993 RMK A01
KHHV 190335Z AUTO 13015G28KT 090V200 10SM FEW048 BKN070 OVC100 27/23 A2993 RMK A01
KHHV 190315Z AUTO 14015G25KT 110V180 10SM SCT048 SCT070 BKN095 27/23 A2993 RMK A01
KHHV 190255Z AUTO 14019G29KT 100V190 10SM FEW039 SCT049 27/23 A2993 RMK A01
KHHV 190235Z AUTO 13017G29KT 090V150 10SM FEW035 SCT043 SCT050 27/23 A2992 RMK A01
KHHV 190215Z AUTO 13010G24KT 080V220 10SM FEW012 SCT042 BKN050 26/24 A2992 RMK A01
KHHV 190155Z AUTO 12021G28KT 10SM BKN013 SCT040 OVC055 27/24 A2992 RMK A01
KHHV 190135Z AUTO 12018G25KT 10SM SCT013 BKN055 27/24 A2991 RMK A01
KHHV 190115Z AUTO 13014G23KT 100V160 10SM CLR 27/23 A2991 RMK A01
KHHV 190055Z AUTO 13013G21KT 10SM CLR 27/23 A2990 RMK A01
KHHV 190035Z AUTO 14016G23KT 10SM CLR 27/23 A2991 RMK A01
KHHV 190015Z AUTO 15020G25KT 10SM CLR 26/23 A2990 RMK A01
KHHV 182355Z AUTO 15020G25KT 10SM CLR 26/23 A2989 RMK A01
KHHV 182335Z AUTO 15016G23KT 10SM CLR 26/24 A2989 RMK A01
KHHV 182315Z AUTO 16016G25KT 10SM CLR 26/23 A2988 RMK A01
KHHV 182255Z AUTO 19019G26KT 10SM FEW015 26/23 A2989 RMK A01
KHHV 182235Z AUTO 18022KT 10SM SCT014 26/24 A2989 RMK A01
KHHV 182215Z AUTO 18022KT 10SM SCT015 26/25 A2990 RMK A01
KHHV 182155Z AUTO 17019G25KT 10SM FEW015 26/24 A2990 RMK A01
KHHV 182135Z AUTO 17015G26KT 10SM SCT016 26/24 A2991 RMK A01
KHHV 182115Z AUTO 17021G30KT 10SM BKN016 27/23 A2991 RMK A01
KHHV 182055Z AUTO 17026KT 10SM SCT015 27/24 A2990 RMK A01
KHHV 182035Z AUTO 19018G24KT 10SM FEW015 27/24 A2989 RMK A01
KHHV 182015Z AUTO 18020KT 10SM SCT015 27/23 A2990 RMK A01
KHHV 181955Z AUTO 19018G27KT 10SM FEW015 27/24 A2991 RMK A01
KHHV 181935Z AUTO 18020G26KT 10SM SCT015 27/23 A2991 RMK A01
KHHV 181915Z AUTO 19018G27KT 10SM SCT018 SCT023 27/23 A2992 RMK A01
KHHV 181855Z AUTO 18018G26KT 10SM BKN018 BKN025 27/24 A2993 RMK A01
KHHV 181835Z AUTO 17022G28KT 10SM SCT017 BKN025 27/24 A2993 RMK A01
KHHV 181815Z AUTO 17023G32KT 10SM FEW021 FEW026 27/23 A2993 RMK A01
KHHV 181755Z AUTO 17029KT 10SM SCT016 BKN024 27/23 A2993 RMK A01
KHHV 181735Z AUTO 18026KT 10SM SCT015 SCT080 27/24 A2993 RMK A01
KHHV 181715Z AUTO 18022KT 10SM CLR 27/24 A2993 RMK A01
KHHV 181655Z AUTO 18026KT 9SM FEW015 SCT021 SCT027 26/25 A2993 RMK A01
KHHV 181635Z AUTO 17016G31KT 6SM BR SCT018 SCT028 SCT040 26/25 A2994 RMK A01
KHHV 181615Z AUTO 16017G29KT 5SM BR SCT019 SCT030 BKN038 27/24 A2994 RMK A01
KHHV 181555Z AUTO 15020G29KT 4SM HZ BKN018 BKN025 OVC055 27/24 A2994 RMK A01
KHHV 181535Z AUTO 15022G29KT 10SM SCT018 BKN047 OVC070 27/25 A2994 RMK A01
KHHV 181515Z AUTO 14019G28KT 9SM FEW017 FEW030 BKN060 27/24 A2993 RMK A01
KHHV 181455Z AUTO 14021G30KT 7SM SCT016 BKN028 BKN042 26/26 A2993 RMK A01
KHHV 181435Z AUTO 15020G28KT 2SM BR FEW005 BKN015 OVC055 26/26 A2993 RMK A01
KHHV 181415Z AUTO 15020KT 1/4SM FG OVC005 25/25 A2994 RMK A01
KHHV 181355Z AUTO 17019G25KT 1/4SM FG OVC005 25/25 A2995 RMK A01
KHHV 181335Z AUTO 14014G19KT 9SM FEW019 SCT024 BKN080 25/23 A2994 RMK A01
KHHV 181315Z AUTO 14013KT 10SM FEW040 FEW055 OVC075 25/24 A2993 RMK A01
KHHV 181255Z AUTO 15013G19KT 10SM BKN033 BKN047 OVC080 24/24 A2992 RMK A01
KHHV 181235Z AUTO 19015G29KT 3/4SM BR BKN006 OVC032 24/24 A2991 RMK A01
KHHV 181215Z AUTO 20016G23KT 2SM BR FEW005 SCT014 OVC033 24/24 A2991 RMK A01
KHHV 181155Z AUTO 21014G25KT 170V230 1 1/4SM BR BKN007 BKN015 OVC031 24/24 A2991 RMK A01
KHHV 181135Z AUTO 23008G20KT 200V260 1 1/4SM BR BKN005 BKN008 OVC029 25/25 A2991 RMK A01
KHHV 181115Z AUTO 22019G36KT 1/4SM FG OVC005 24/24 A2990 RMK A01
KHHV 181055Z AUTO 17014G30KT M1/4SM FG OVC005 26/26 A2989 RMK A01
KHHV 181035Z AUTO 17017G26KT 140V200 1SM BR SCT005 BKN013 OVC017 26/26 A2989 RMK A01
KHHV 181015Z AUTO 16015G27KT 140V200 1 1/2SM BR BKN013 BKN019 OVC030 27/25 A2988 RMK A01
KHHV 180955Z AUTO 15024KT 10SM SCT016 BKN030 OVC041 27/25 A2987 RMK A01
KHHV 180935Z AUTO 15026KT 10SM BKN016 BKN029 OVC065 27/24 A2987 RMK A01
KHHV 180915Z AUTO 14018G26KT 10SM BKN017 BKN033 OVC070 27/25 A2988 RMK A01
KHHV 180855Z AUTO 15022KT 10SM BKN018 BKN028 OVC055 27/24 A2988 RMK A01
KHHV 180835Z AUTO 15021G30KT 10SM SCT017 BKN024 OVC031 27/24 A2988 RMK A01
KHHV 180815Z AUTO 14022G27KT 10SM SCT018 BKN024 OVC044 27/24 A2988 RMK A01
KHHV 180755Z AUTO 14021G26KT 8SM SCT018 BKN028 OVC047 27/24 A2989 RMK A01
KHHV 180735Z AUTO 13013G24KT 080V180 10SM SCT020 BKN029 OVC065 26/25 A2989 RMK A01
KHHV 180715Z AUTO 13016G28KT 1SM HZ SCT005 BKN019 OVC033 26/23 A2989 RMK A01 VIS 1/4V5
KHHV 180655Z AUTO 14015G22KT 10SM SCT019 BKN033 OVC070 27/24 A2990 RMK A01
KHHV 180635Z AUTO 15020G25KT 10SM BKN020 BKN030 OVC048 27/24 A2991 RMK A01
KHHV 180615Z AUTO 13013G20KT 10SM SCT021 BKN045 OVC070 28/24 A2991 RMK A01
KHHV 180555Z AUTO 15014G21KT 10SM FEW025 SCT045 BKN070 27/24 A2992 RMK A01
KHHV 180535Z AUTO 15016G23KT 10SM FEW025 BKN065 OVC080 27/24 A2992 RMK A01
KHHV 180515Z AUTO 14016G21KT 10SM SCT023 BKN065 OVC080 27/23 A2993 RMK A01
KHHV 180455Z AUTO 14014G20KT 10SM SCT023 BKN065 OVC110 27/23 A2993 RMK A01
KHHV 180435Z AUTO 15014KT 10SM SCT060 BKN080 OVC110 27/22 A2993 RMK A01
KHHV 180415Z AUTO 16008KT 10SM SCT055 BKN065 OVC075 26/24 A2993 RMK A01
KHHV 180355Z AUTO 17009KT 10SM FEW012 SCT038 BKN065 25/25 A2993 RMK A01
KHHV 180335Z AUTO 16007G15KT 10SM FEW010 SCT028 OVC038 25/25 A2994 RMK A01
KHHV 180315Z AUTO 14013KT 5SM BR BKN010 BKN023 OVC075 25/25 A2993 RMK A01
KHHV 180255Z AUTO 10016KT 10SM BKN017 BKN037 OVC120 26/24 A2993 RMK A01
KHHV 180235Z AUTO 10016KT 10SM FEW009 BKN016 OVC110 27/25 A2992 RMK A01
KHHV 180215Z AUTO 08015KT 10SM SCT011 BKN080 OVC110 26/25 A2991 RMK A01
KHHV 180155Z AUTO 06012KT 1 3/4SM BR BKN009 OVC018 26/25 A2990 RMK A01 VIS 1V4
KHHV 180135Z AUTO 07007KT 10SM FEW009 BKN065 OVC120 26/24 A2990 RMK A01
KHHV 180115Z AUTO 00000KT 10SM FEW017 SCT031 OVC120 26/24 A2989 RMK A01
KHHV 180055Z AUTO 31007KT 10SM BKN014 OVC020 26/24 A2989 RMK A01
KHHV 180035Z AUTO 32008KT 10SM BKN013 BKN040 OVC045 26/24 A2988 RMK A01
KHHV 180015Z AUTO 30007KT 10SM SCT042 SCT049 25/25 A2988 RMK A01
KHHV 172355Z AUTO 25008KT 10SM FEW019 SCT030 25/25 A2988 RMK A01
KHHV 172335Z AUTO 27011KT 4SM BR FEW009 SCT017 BKN022 25/25 A2988 RMK A01
KHHV 172315Z AUTO 25013G19KT 9SM FEW010 SCT019 BKN024 25/25 A2988 RMK A01
KHHV 172255Z AUTO 23018KT 10SM BKN010 BKN017 BKN026 25/25 A2988 RMK A01
KHHV 172235Z AUTO VRB04KT 10SM SCT010 SCT018 BKN065 25/25 A2990 RMK A01
KHHV 172215Z AUTO VRB04KT 4SM BR FEW010 BKN018 OVC065 25/25 A2990 RMK A01
KHHV 172155Z AUTO 16004KT 6SM BR FEW016 BKN021 OVC044 24/24 A2990 RMK A01
KHHV 172135Z AUTO 23008G14KT 3SM BR SCT005 OVC033 24/24 A2991 RMK A01
KHHV 172115Z AUTO 26010KT 1/2SM BR OVC005 24/24 A2992 RMK A01
KHHV 172055Z AUTO 33005KT M1/4SM FG OVC004 24/24 A2993 RMK A01
KHHV 172035Z AUTO 05015KT 1/2SM BR BKN004 BKN027 OVC039 25/24 A2990 RMK A01
KHHV 172015Z AUTO 31013KT 1SM BR BKN005 BKN016 OVC026 26/24 A2988 RMK A01
KHHV 171955Z AUTO 30016KT 10SM BKN016 OVC021 27/24 A2989 RMK A01
KHHV 171935Z AUTO 31009KT 10SM OVC018 29/24 A2990 RMK A01
KHHV 171915Z AUTO 07010KT 10SM OVC016 29/24 A2989 RMK A01
KHHV 171855Z AUTO 12009G14KT 050V170 10SM BKN016 BKN020 BKN027 28/25 A2990 RMK A01
KHHV 171835Z AUTO VRB05KT 5SM HZ BKN016 BKN021 BKN028 29/25 A2990 RMK A01
KHHV 171815Z AUTO 10008KT 9SM SCT016 SCT022 SCT037 29/25 A2990 RMK A01
KHHV 171755Z AUTO 15005KT 10SM CLR 28/25 A2991 RMK A01
KHHV 171735Z AUTO VRB04KT 10SM CLR 29/24 A2991 RMK A01
KHHV 171715Z AUTO 18006KT 10SM CLR 30/24 A2991 RMK A01
KHHV 171655Z AUTO VRB06KT 10SM CLR 29/24 A2990 RMK A01
KHHV 171635Z AUTO 17007KT 10SM FEW016 29/24 A2991 RMK A01
KHHV 171615Z AUTO 16005KT 10SM CLR 29/24 A2991 RMK A01
KHHV 171555Z AUTO 18007KT 10SM FEW033 FEW044 FEW120 29/24 A2990 RMK A01
KHHV 171535Z AUTO 15006KT 10SM SCT017 SCT024 SCT031 29/25 A2990 RMK A01
KHHV 171515Z AUTO 17007KT 10SM SCT016 SCT023 SCT030 28/24 A2990 RMK A01
KHHV 171455Z AUTO 18008KT 10SM FEW017 28/25 A2990 RMK A01
KHHV 171435Z AUTO 19008KT 10SM CLR 28/24 A2989 RMK A01
KHHV 171415Z AUTO 19009KT 10SM CLR 27/24 A2989 RMK A01
KHHV 171355Z AUTO 17008KT 10SM CLR 27/24 A2988 RMK A01
KHHV 171335Z AUTO 15008KT CLR 27/24 A2988 RMK A01
KHHV 171315Z AUTO 15011KT 10SM CLR 27/24 A2988 RMK A01
KHHV 171255Z AUTO 16008G13KT 10SM FEW015 SCT026 SCT033 26/25 A2987 RMK A01
KHHV 171235Z AUTO 13009G15KT 10SM FEW017 SCT026 SCT033 27/24 A2986 RMK A01
KHHV 171215Z AUTO 14010KT 10SM FEW018 SCT024 SCT060 27/24 A2986 RMK A01
KHHV 171155Z AUTO 16009KT 10SM SCT018 BKN024 BKN060 28/24 A2986 RMK A01
KHHV 171135Z AUTO 15010KT 10SM SCT019 BKN023 28/24 A2985 RMK A01
KHHV 171115Z AUTO 16009G14KT 10SM SCT021 28/23 A2985 RMK A01
KHHV 171055Z AUTO 16010G16KT 140V200 10SM SCT021 28/23 A2984 RMK A01
KHHV 171035Z AUTO 17010G16KT 10SM FEW020 27/23 A2984 RMK A01
KHHV 171015Z AUTO 16008KT 10SM CLR 27/23 A2985 RMK A01
KHHV 170955Z AUTO 15009KT 10SM FEW021 27/23 A2985 RMK A01
KHHV 170935Z AUTO 14008KT 10SM FEW020 27/23 A2985 RMK A01
KHHV 170915Z AUTO 13008KT 10SM FEW020 27/23 A2985 RMK A01
KHHV 170855Z AUTO 14009KT 10SM SCT020 27/23 A2985 RMK A01
KHHV 170835Z AUTO 15011KT 10SM FEW043 27/24 A2985 RMK A01
KHHV 170815Z AUTO 13009G16KT 10SM FEW018 FEW022 BKN042 27/23 A2985 RMK A01
KHHV 170755Z AUTO 14011G17KT 10SM FEW039 BKN045 27/23 A2986 RMK A01
KHHV 170735Z AUTO 14012G18KT 10SM BKN044 BKN085 27/23 A2987 RMK A01
KHHV 170715Z AUTO 14012KT 10SM FEW020 SCT028 BKN080 27/23 A2988 RMK A01
KHHV 170655Z AUTO 14011G17KT 10SM BKN020 BKN032 OVC080 27/24 A2989 RMK A01
KHHV 170635Z AUTO 13010G17KT 10SM SCT020 BKN028 OVC100 27/24 A2990 RMK A01
KHHV 170615Z AUTO VRB06G15KT 090V180 10SM SCT023 BKN036 OVC065 27/24 A2990 RMK A01
KHHV 170555Z AUTO 10013KT 10SM SCT022 BKN033 OVC065 27/24 A2990 RMK A01
KHHV 170535Z AUTO 12006G18KT 5SM HZ SCT017 BKN026 OVC039 26/23 A2991 RMK A01
KHHV 170515Z AUTO 15014KT 10SM SCT021 BKN026 BKN032 28/24 A2990 RMK A01
KHHV 170455Z AUTO 13010G19KT 100V170 10SM CLR 28/23 A2990 RMK A01
KHHV 170435Z AUTO 13010G18KT 10SM SCT022 SCT032 BKN043 28/23 A2990 RMK A01
KHHV 170415Z AUTO 13015G20KT 10SM BKN021 BKN027 BKN031 28/23 A2990 RMK A01
KHHV 170355Z AUTO 13014G20KT 110V200 10SM FEW021 SCT028 SCT034 28/23 A2989 RMK A01
KHHV 170335Z AUTO 12015KT 10SM FEW020 28/23 A2989 RMK A01
KHHV 170315Z AUTO 12019KT 10SM FEW020 FEW026 28/23 A2987 RMK A01
KHHV 170255Z AUTO 12017KT 10SM SCT020 SCT028 28/23 A2987 RMK A01
KHHV 170235Z AUTO 10016KT 10SM SCT020 SCT029 28/24 A2986 RMK A01
KHHV 170215Z AUTO 11013KT 10SM CLR 28/23 A2985 RMK A01
KHHV 170155Z AUTO 11013KT 10SM CLR 28/23 A2985 RMK A01
KHHV 170135Z AUTO 12016KT 10SM CLR 28/23 A2985 RMK A01
KHHV 170115Z AUTO 12018KT 10SM FEW018 28/23 A2986 RMK A01
KHHV 170055Z AUTO 12018KT 10SM SCT018 28/24 A2987 RMK A01
KHHV 170035Z AUTO 12019KT 10SM CLR 28/24 A2986 RMK A01
KHHV 170015Z AUTO 11020KT 10SM CLR 28/24 A2986 RMK A01
KHHV 162355Z AUTO 12015G24KT 10SM FEW015 FEW034 28/23 A2986 RMK A01
KHHV 162335Z AUTO 12011G17KT 070V150 10SM FEW015 SCT024 SCT034 27/24 A2986 RMK A01
KHHV 162315Z AUTO 13013G18KT 10SM CLR 27/24 A2987 RMK A01
KHHV 162255Z AUTO 13012KT 10SM CLR 26/23 A2988 RMK A01
KHHV 162235Z AUTO 14018KT 10SM FEW006 FEW018 SCT029 25/23 A2988 RMK A01
KHHV 162215Z AUTO 13017G26KT 120V180 2SM HZ FEW006 SCT020 BKN065 26/24 A2989 RMK A01
KHHV 162155Z AUTO 14010G16KT 10SM SCT060 SCT090 BKN110 26/23 A2989 RMK A01
KHHV 162135Z AUTO 14013KT 10SM FEW029 FEW034 SCT055 25/24 A2990 RMK A01
KHHV 162115Z AUTO 14013G26KT 1 1/4SM HZ SCT006 BKN014 BKN021 25/23 A2990 RMK A01
KHHV 162055Z AUTO 12018G28KT 090V180 4SM HZ FEW020 SCT024 SCT032 29/23 A2990 RMK A01
KHHV 162035Z AUTO 12016KT 10SM CLR 32/23 A2990 RMK A01
KHHV 162015Z AUTO 12017G22KT 10SM FEW025 32/22 A2990 RMK A01
KHHV 161955Z AUTO 11016KT 10SM CLR 33/23 A2990 RMK A01
KHHV 161935Z AUTO 12018KT 10SM FEW023 FEW029 33/23 A2990 RMK A01
KHHV 161915Z AUTO 10019KT 10SM FEW023 FEW037 33/24 A2990 RMK A01
KHHV 161855Z AUTO 10017KT 10SM CLR 32/23 A2991 RMK A01
KHHV 161835Z AUTO 11017KT 10SM CLR 32/23 A2991 RMK A01
KHHV 161815Z AUTO 11017KT 10SM FEW025 FEW065 32/23 A2992 RMK A01
KHHV 161755Z AUTO 11017KT 10SM FEW021 FEW027 FEW034 32/23 A2992 RMK A01
KHHV 161735Z AUTO 11016KT 10SM FEW023 SCT033 32/24 A2992 RMK A01
KHHV 161715Z AUTO 11015KT 10SM FEW024 32/23 A2992 RMK A01
KHHV 161655Z AUTO 11015KT 10SM CLR 31/23 A2993 RMK A01
KHHV 161635Z AUTO 12016KT 10SM CLR 31/23 A2993 RMK A01
KHHV 161615Z AUTO 12010G17KT 10SM FEW025 31/23 A2993 RMK A01
KHHV 161555Z AUTO 13011G17KT 090V150 10SM FEW025 FEW039 31/23 A2993 RMK A01
KHHV 161535Z AUTO 13009G18KT 10SM FEW024 FEW033 SCT039 30/23 A2993 RMK A01
KHHV 161515Z AUTO 13011G18KT 110V190 10SM FEW025 FEW032 29/23 A2993 RMK A01
KHHV 161455Z AUTO 12012KT 10SM CLR 29/23 A2993 RMK A01
KHHV 161435Z AUTO 14007G16KT 120V190 10SM FEW026 29/22 A2992 RMK A01
KHHV 161415Z AUTO 13012G17KT 10SM FEW028 29/22 A2992 RMK A01
KHHV 161355Z AUTO 14009G15KT 080V220 10SM FEW028 FEW034 29/22 A2992 RMK A01
KHHV 161335Z AUTO 13012KT 10SM FEW025 FEW031 28/23 A2992 RMK A01
KHHV 161315Z AUTO 14011KT 10SM SCT024 SCT031 28/23 A2992 RMK A01
KHHV 161255Z AUTO 13011G17KT 10SM FEW023 FEW028 28/23 A2991 RMK A01
KHHV 161235Z AUTO 14013KT 10SM SCT025 SCT033 28/23 A2991 RMK A01
KHHV 161215Z AUTO 13010G17KT 090V170 10SM SCT024 BKN031 28/23 A2990 RMK A01
KHHV 161155Z AUTO 14009G17KT 090V250 10SM SCT023 BKN029 28/23 A2990 RMK A01
KHHV 161135Z AUTO 13008G18KT 090V180 10SM SCT023 SCT027 28/23 A2989 RMK A01
KHHV 161115Z AUTO 13013G18KT 10SM SCT024 28/23 A2989 RMK A01
KHHV 161055Z AUTO 13011G18KT 10SM FEW025 28/23 A2988 RMK A01
KHHV 161035Z AUTO 14014G19KT 10SM BKN024 BKN029 28/23 A2989 RMK A01
KHHV 161015Z AUTO 13012G19KT 10SM SCT022 28/23 A2989 RMK A01
KHHV 160955Z AUTO 15016KT 10SM CLR 28/22 A2989 RMK A01
KHHV 160935Z AUTO 14014G19KT 10SM FEW025 28/22 A2989 RMK A01
KHHV 160915Z AUTO 14015G21KT 10SM FEW024 28/22 A2989 RMK A01
KHHV 160855Z AUTO 15020KT 10SM FEW025 28/22 A2989 RMK A01
KHHV 160835Z AUTO 15018KT 10SM CLR 28/23 A2990 RMK A01
KHHV 160815Z AUTO 15020KT 10SM FEW025 FEW032 SCT049 28/23 A2990 RMK A01
KHHV 160755Z AUTO 15023G28KT 10SM SCT024 SCT032 BKN039 28/23 A2990 RMK A01
KHHV 160735Z AUTO 14014G22KT 10SM FEW025 SCT048 BKN055 28/23 A2991 RMK A01
KHHV 160715Z AUTO 15022KT 10SM FEW024 FEW032 SCT043 28/23 A2992 RMK A01
KHHV 160655Z AUTO 14016G23KT 10SM FEW027 28/23 A2992 RMK A01
KHHV 160635Z AUTO 14016G27KT 10SM FEW029 28/22 A2993 RMK A01
KHHV 160615Z AUTO 15022G28KT 10SM FEW030 28/22 A2994 RMK A01
KHHV 160555Z AUTO 14018G27KT 10SM SCT029 SCT036 28/22 A2995 RMK A01
KHHV 160535Z AUTO 13016G25KT 100V170 BKN029 BKN036 BKN041 28/22 A2995 RMK A01
KHHV 160515Z AUTO 14019G25KT 10SM SCT028 BKN035 BKN043 28/22 A2995 RMK A01
KHHV 160455Z AUTO 14017G27KT 10SM FEW026 SCT035 BKN043 28/23 A2995 RMK A01
KHHV 160435Z AUTO 13014G25KT 100V170 10SM FEW025 SCT031 SCT039 28/23 A2995 RMK A01
KHHV 160415Z AUTO 13011G23KT 100V160 10SM 29/23 A2995 RMK A01
KHHV 160355Z AUTO 13013G22KT 10SM 28/23 A2994 RMK A01
KHHV 160335Z AUTO 13016G23KT 10SM SCT024 28/23 A2994 RMK A01
KHHV 160315Z AUTO 13010G20KT 090V170 10SM SCT025 28/23 A2994 RMK A01
KHHV 160255Z AUTO 13014G23KT 070V180 10SM FEW023 FEW029 28/23 A2993 RMK A01
KHHV 160235Z AUTO 13010G22KT 090V170 10SM FEW023 FEW028 28/22 A2993 RMK A01
KHHV 160215Z AUTO 13012G23KT 080V170 10SM SCT025 28/23 A2992 RMK A01
KHHV 160155Z AUTO 13013G23KT 120V190 10SM FEW025 SCT030 28/23 A2992 RMK A01
KHHV 160135Z AUTO 13012G20KT 100V170 10SM FEW027 28/23 A2991 RMK A01
KHHV 160115Z AUTO 13013G20KT 090V150 10SM FEW022 28/23 A2991 RMK A01
KHHV 160055Z AUTO 12016G21KT 10SM FEW022 29/23 A2991 RMK A01
KHHV 160035Z AUTO 13012G19KT 10SM FEW021 FEW027 28/23 A2990 RMK A01
KHHV 160015Z AUTO 14011G19KT 10SM FEW019 28/23 A2990 RMK A01
KHHV 152355Z AUTO 14013G19KT 10SM FEW020 29/23 A2990 RMK A01
KHHV 152335Z AUTO 13014G19KT 10SM FEW020 FEW024 29/23 A2990 RMK A01
KHHV 152315Z AUTO 13012G20KT 10SM FEW021 29/23 A2991 RMK A01
KHHV 152255Z AUTO 14012G19KT 10SM FEW020 29/23 A2991 RMK A01
KHHV 152235Z AUTO 14015G21KT 10SM CLR 29/23 A2991 RMK A01
KHHV 152215Z AUTO 12010G22KT 080V180 10SM CLR 30/23 A2991 RMK A01
KHHV 152155Z AUTO 14007G19KT CLR 30/23 A2992 RMK A01
KHHV 152135Z AUTO 11/56000012G18KT 10SM FEW021 FEW026 FEW033 30/24 A2992 RMK A01
KHHV 152115Z AUTO 13011G20KT 100V160 10SM SCT023 SCT033 BKN039 30/24 A2992 RMK A01
KHHV 152055Z AUTO 12010G18KT 080V160 10SM CLR 30/23 A2992 RMK A01
KHHV 152035Z AUTO 13014G19KT 10SM CLR 30/23 A2992 RMK A01
KHHV 152015Z AUTO 13013G19KT 090V180 10SM CLR 30/23 A2993 RMK A01
KHHV 151955Z AUTO 13015G20KT 100V160 10SM FEW023 FEW030 31/23 A2994 RMK A01
KHHV 151935Z AUTO 12011G17KT 10SM FEW023 FEW041 FEW060 30/24 A2995 RMK A01
KHHV 151915Z AUTO 14012G23KT 10SM FEW023 FEW041 FEW060 29/22 A2996 RMK A01
KHHV 151855Z AUTO 12010G21KT 070V150 10SM CLR 31/23 A2996 RMK A01
KHHV 151835Z AUTO 13011G20KT 080V160 10SM FEW021 SCT027 SCT036 31/23 A2997 RMK A01
KHHV 151815Z AUTO 14010G19KT 100V160 10SM SCT021 SCT028 BKN035 31/24 A2997 RMK A01
KHHV 151755Z AUTO 12010G17KT 10SM FEW022 FEW028 FEW036 32/24 A2997 RMK A01
KHHV 151735Z AUTO 12009KT 090V170 10SM FEW021 32/24 A2996 RMK A01
KHHV 151715Z AUTO 12010G15KT 100V160 10SM CLR 31/24 A2996 RMK A01
KHHV 151655Z AUTO 13009G15KT 080V150 10SM CLR 31/23 A2997 RMK A01
KHHV 151635Z AUTO 14009KT 10SM CLR 31/23 A2996 RMK A01
KHHV 151615Z AUTO 14011G17KT 10SM CLR 30/23 A2996 RMK A01
KHHV 151555Z AUTO 15012KT 10SM CLR 30/23 A2997 RMK A01
KHHV 151535Z AUTO 15012KT 10SM CLR 29/23 A2996 RMK A01
KHHV 151515Z AUTO 15011KT 10SM FEW028 29/23 A2997 RMK A01
KHHV 151455Z AUTO 14011G17KT 10SM FEW027 29/23 A2997 RMK A01
KHHV 151435Z AUTO 15014KT 10SM CLR 28/23 A2996 RMK A01
KHHV 151415Z AUTO 14012G19KT 10SM CLR 28/23 A2996 RMK A01
KHHV 151355Z AUTO 15016G22KT 10SM CLR 28/23 A2996 RMK A01
KHHV 151335Z AUTO 15016KT 10SM FEW020 FEW027 FEW036 29/23 A2996 RMK A01
KHHV 151315Z AUTO 15012G19KT 10SM FEW021 SCT028 28/24 A2996 RMK A01
KHHV 151255Z AUTO 14011G17KT 10SM FEW020 28/24 A2995 RMK A01
KHHV 151235Z AUTO 15014KT 10SM CLR 28/23 A2995 RMK A01
KHHV 151215Z AUTO 14010G17KT 10SM CLR 28/24 A2995 RMK A01
KHHV 151155Z AUTO 15012KT 10SM CLR 28/23 A2994 RMK A01
KHHV 151135Z AUTO 14012KT 10SM CLR 28/23 A2994 RMK A01
KHHV 151115Z AUTO 15016G22KT 10SM CLR 28/23 A2994 RMK A01
KHHV 151055Z AUTO 15015G21KT 10SM FEW055 FEW085 28/22 A2994 RMK A01
KHHV 151035Z AUTO 15016G21KT 10SM FEW028 SCT050 BKN060 28/23 A2994 RMK A01
KHHV 151015Z AUTO 15016G22KT 10SM SCT026 SCT034 SCT043 28/23 A2994 RMK A01
KHHV 150955Z AUTO 14015G26KT 10SM FEW027 29/23 A2994 RMK A01
KHHV 150935Z AUTO 14018G25KT 10SM FEW024 FEW030 FEW041 28/23 A2994 RMK A01
KHHV 150915Z AUTO 15018G23KT 10SM FEW023 FEW030 SCT041 29/24 A2995 RMK A01
KHHV 150855Z AUTO 15021KT 10SM CLR 29/23 A2995 RMK A01
KHHV 150835Z AUTO 14017G26KT 10SM CLR 29/22 A2995 RMK A01
KHHV 150815Z AUTO 14017G24KT 10SM FEW023 SCT049 BKN085 28/23 A2995 RMK A01
KHHV 150755Z AUTO 14015G25KT 10SM FEW030 FEW065 29/23 A2996 RMK A01
KHHV 150735Z AUTO 14017G24KT 10SM FEW026 29/22 A2996 RMK A01
KHHV 150715Z AUTO 14017G24KT 10SM SCT025 29/23 A2996 RMK A01
KHHV 150655Z AUTO 14013G24KT 110V210 10SM SCT025 SCT042 BKN060 29/23 A2996 RMK A01
KHHV 150635Z AUTO 13014G23KT 10SM SCT026 SCT032 BKN060 29/24 A2997 RMK A01
KHHV 150615Z AUTO 14015G23KT 10SM SCT026 SCT033 29/24 A2997 RMK A01
KHHV 150555Z AUTO 13013G23KT 100V160 10SM SCT023 SCT029 28/24 A2998 RMK A01
KHHV 150535Z AUTO 14012G23KT 100V170 10SM FEW024 28/23 A2998 RMK A01
KHHV 150515Z AUTO 14014G23KT 10SM CLR 28/23 A2998 RMK A01
KHHV 150455Z AUTO 13011G22KT 110V190 10SM CLR 28/23 A2998 RMK A01
KHHV 150435Z AUTO 12012G22KT 10SM FEW110 28/23 A2998 RMK A01
KHHV 150415Z AUTO 13014G20KT 110V180 10SM FEW019 SCT027 BKN110 28/24 A2999 RMK A01
KHHV 150355Z AUTO 13014G30KT 080V170 10SM SCT026 SCT031 SCT055 29/23 A2998 RMK A01
KHHV 150335Z AUTO 12019G24KT 10SM FEW024 FEW030 29/23 A2998 RMK A01
KHHV 150315Z AUTO 12019KT 10SM FEW023 FEW029 28/23 A2998 RMK A01
KHHV 150255Z AUTO 10013KT 10SM FEW025 FEW029 FEW037 28/24 A2999 RMK A01
KHHV 150235Z AUTO 11015KT 10SM FEW026 FEW030 SCT047 27/23 A2998 RMK A01
KHHV 150215Z AUTO 10016KT 10SM SCT120 28/23 A2998 RMK A01
KHHV 150155Z AUTO 11015KT 10SM FEW038 FEW095 BKN120 26/23 A2998 RMK A01
KHHV 150135Z AUTO 13014G24KT 080V180 10SM FEW005 SCT030 BKN047 25/22 A2998 RMK A01
KHHV 150115Z AUTO 15020G29KT 8SM SCT005 SCT030 BKN044 26/23 A2999 RMK A01
KHHV 150055Z AUTO 14008G17KT 9SM FEW025 SCT031 BKN070 26/20 A2999 RMK A01
KHHV 150035Z AUTO 13019G31KT 8SM SCT026 BKN033 BKN044 27/21 A2997 RMK A01
KHHV 150015Z AUTO 12016G24KT 10SM FEW025 FEW031 SCT039 29/23 A2997 RMK A01
KHHV 142355Z AUTO 11018KT 10SM FEW024 FEW034 30/23 A2997 RMK A01
KHHV 142335Z AUTO 11015KT 10SM CLR 30/23 A2996 RMK A01
KHHV 142315Z AUTO 12012KT 10SM CLR 29/24 A2996 RMK A01
KHHV 142255Z AUTO 11015KT 10SM FEW036 29/24 A2996 RMK A01
KHHV 142235Z AUTO 11013KT 10SM CLR 28/24 A2997 RMK A01
KHHV 142215Z AUTO 11010KT 9SM FEW005 FEW025 SCT031 27/24 A2997 RMK A01
KHHV 142155Z AUTO 14019G25KT 100V160 10SM SCT025 SCT030 BKN037 31/23 A2997 RMK A01
KHHV 142135Z AUTO 11014KT 10SM SCT026 SCT042 BKN050 31/23 A2998 RMK A01
KHHV 142115Z AUTO 12014KT 10SM FEW026 FEW034 31/23 A2998 RMK A01
KHHV 142055Z AUTO 12015KT 10SM FEW027 SCT035 SCT042 31/23 A2999 RMK A01
KHHV 142035Z AUTO 12017KT 10SM FEW027 FEW036 SCT042 31/23 A2999 RMK A01
KHHV 142015Z AUTO 12013G18KT 10SM CLR 32/23 A3000 RMK A01
KHHV 141955Z AUTO 11015KT 10SM CLR 32/23 A3000 RMK A01
KHHV 141935Z AUTO 13010G19KT 10SM CLR 32/23 A3001 RMK A01
KHHV 141915Z AUTO 13009G18KT 070V160 10SM FEW025 FEW031 32/23 A3002 RMK A01
KHHV 141855Z AUTO 12013KT 100V170 10SM CLR 32/23 A3002 RMK A01
KHHV 141835Z AUTO 12010G17KT 110V170 10SM FEW026 SCT030 32/23 A3003 RMK A01
KHHV 141815Z AUTO 12012KT 10SM SCT025 SCT032 BKN042 32/23 A3004 RMK A01
KHHV 141755Z AUTO 12011KT 110V180 10SM CLR 33/23 A3004 RMK A01
KHHV 141735Z AUTO 12009G15KT 100V160 10SM CLR 33/23 A3004 RMK A01
KHHV 141715Z AUTO 11011KT 10SM CLR 32/23 A3005 RMK A01
KHHV 141655Z AUTO 11012KT 10SM CLR 32/23 A3005 RMK A01
KHHV 141635Z AUTO 12009KT 080V170 10SM CLR 32/23 A3005 RMK A01
KHHV 141615Z AUTO 12009G15KT 070V150 10SM FEW060 31/23 A3005 RMK A01
KHHV 141555Z AUTO 12010KT 10SM FEW025 31/23 A3005 RMK A01
KHHV 141535Z AUTO 13007G16KT 080V180 10SM CLR 30/23 A3005 RMK A01
KHHV 141515Z AUTO 12012KT 10SM FEW024 FEW032 FEW044 30/24 A3005 RMK A01
KHHV 141455Z AUTO 12011KT 10SM CLR 29/23 A3004 RMK A01
KHHV 141435Z AUTO 13008KT 10SM CLR 29/23 A3004 RMK A01
KHHV 141415Z AUTO 13007KT 10SM CLR 29/23 A3004 RMK A01
KHHV 141355Z AUTO 12008KT 10SM CLR 29/23 A3004 RMK A01
KHHV 141335Z AUTO 13008KT 10SM CLR 29/23 A3004 RMK A01
KHHV 141315Z AUTO 13009KT 10SM CLR 29/23 A3003 RMK A01
KHHV 141255Z AUTO 14008G15KT 10SM FEW024 29/23 A3003 RMK A01
KHHV 141235Z AUTO 13011KT 10SM CLR 28/23 A3002 RMK A01
KHHV 141215Z AUTO 14009KT 10SM CLR 28/23 A3002 RMK A01
KHHV 141155Z AUTO 14009KT 10SM FEW024 28/23 A3001 RMK A01
KHHV 141135Z AUTO 15009KT 10SM FEW024 FEW032 FEW037 28/23 A3001 RMK A01
KHHV 141115Z AUTO 16007G13KT 10SM FEW024 FEW032 SCT037 28/23 A3000 RMK A01
KHHV 141055Z AUTO 14009KT 10SM CLR 28/23 A3000 RMK A01
KHHV 141035Z AUTO 15010KT 10SM FEW022 28/23 A3000 RMK A01
KHHV 141015Z AUTO 14008G14KT 10SM FEW022 28/23 A3000 RMK A01
KHHV 140955Z AUTO 15011KT 10SM SCT022 28/23 A3000 RMK A01
KHHV 140935Z AUTO 15010KT 10SM CLR 28/23 A2999 RMK A01
KHHV 140915Z AUTO 14007KT 10SM CLR 28/23 A3000 RMK A01
KHHV 140855Z AUTO 14010KT 10SM FEW023 FEW029 FEW040 28/24 A3000 RMK A01
KHHV 140835Z AUTO 14010G15KT 10SM SCT023 SCT029 SCT036 28/23 A3000 RMK A01
KHHV 140815Z AUTO 14009G15KT 10SM FEW023 FEW036 FEW090 28/23 A3000 RMK A01
KHHV 140755Z AUTO 13009KT 10SM FEW023 FEW090 28/23 A3001 RMK A01
KHHV 140735Z AUTO 14012KT 10SM SCT024 BKN036 BKN043 28/23 A3001 RMK A01
KHHV 140715Z AUTO 13009KT 10SM FEW025 SCT036 BKN043 28/24 A3001 RMK A01
KHHV 140655Z AUTO 14010KT 10SM CLR 28/23 A3002 RMK A01
KHHV 140635Z AUTO 15014KT 10SM CLR 28/24 A3002 RMK A01
KHHV 140615Z AUTO 15012KT 10SM CLR 28/23 A3002 RMK A01
KHHV 140555Z AUTO 14012KT 10SM FEW021 FEW031 SCT060 28/24 A3003 RMK A01
KHHV 140535Z AUTO 14009KT 10SM FEW032 FEW050 BKN065 29/23 A3004 RMK A01
KHHV 140515Z AUTO 16008G15KT 10SM FEW023 BKN031 BKN041 28/21 A3004 RMK A01
KHHV 140455Z AUTO 15013KT 10SM FEW023 FEW031 SCT043 28/23 A3004 RMK A01
KHHV 140435Z AUTO 13010KT 10SM CLR 28/24 A3005 RMK A01
KHHV 140415Z AUTO 13008G14KT 10SM CLR 28/24 A3005 RMK A01
KHHV 140355Z AUTO 13010KT 10SM CLR 28/24 A3004 RMK A01
KHHV 140335Z AUTO 15012KT 10SM CLR 28/23 A3004 RMK A01
KHHV 140315Z AUTO 15010KT 10SM CLR 28/23 A3003 RMK A01
KHHV 140255Z AUTO 15009KT 10SM CLR 27/23 A3003 RMK A01
KHHV 140235Z AUTO 16011KT 10SM CLR 28/23 A3002 RMK A01
KHHV 140215Z AUTO 14012G17KT 10SM CLR 27/23 A3001 RMK A01
KHHV 140155Z AUTO 15013KT 10SM CLR 27/22 A3001 RMK A01
KHHV 140135Z AUTO 15013G18KT 10SM FEW060 FEW070 27/20 A3002 RMK A01
KHHV 140115Z AUTO 15020KT 10SM SCT060 SCT070 27/22 A3002 RMK A01
KHHV 140055Z AUTO 15017G26KT 10SM FEW025 FEW034 SCT120 28/21 A3001 RMK A01
KHHV 140035Z AUTO 14018G29KT 10SM FEW021 FEW027 SCT065 29/22 A3000 RMK A01
KHHV 140015Z AUTO 14009G18KT 100V170 10SM FEW021 FEW026 30/24 A3000 RMK A01
KHHV 132355Z AUTO 13009G16KT 100V160 10SM FEW021 FEW026 30/24 A3000 RMK A01
KHHV 132335Z AUTO 13010G17KT 110V170 10SM CLR 30/24 A3000 RMK A01
KHHV 132315Z AUTO 13011G16KT 10SM CLR 30/23 A3000 RMK A01
KHHV 132255Z AUTO 13010KT 10SM CLR 30/23 A3001 RMK A01
KHHV 132235Z AUTO 13012KT 10SM CLR 30/22 A3000 RMK A01
KHHV 132215Z AUTO 13010G18KT 050V160 10SM CLR 31/23 A3000 RMK A01
KHHV 132155Z AUTO 13009G18KT 090V180 10SM FEW024 31/22 A3000 RMK A01
KHHV 132135Z AUTO 12013G18KT 10SM FEW022 FEW027 31/24 A3001 RMK A01
KHHV 132115Z AUTO 11015KT 10SM FEW022 SCT027 32/24 A3001 RMK A01
KHHV 132055Z AUTO 11013KT 10SM CLR 32/24 A3001 RMK A01
KHHV 132035Z AUTO 12011KT 10SM CLR 33/24 A3001 RMK A01
KHHV 132015Z AUTO 12011KT 10SM CLR 33/24 A3002 RMK A01
KHHV 131955Z AUTO 12011KT 10SM CLR 33/24 A3003 RMK A01
KHHV 131935Z AUTO 12011KT 10SM CLR 33/24 A3003 RMK A01
KHHV 131915Z AUTO 12011KT 10SM CLR 33/24 A3003 RMK A01
KHHV 131855Z AUTO 12012KT 10SM CLR 33/23 A3004 RMK A01
KHHV 131835Z AUTO 12008G13KT 10SM CLR 33/23 A3004 RMK A01
KHHV 131815Z AUTO 11009KT 10SM CLR 33/24 A3005 RMK A01
KHHV 131755Z AUTO 11009KT 10SM CLR 33/23 A3006 RMK A01
KHHV 131735Z AUTO 12008KT 10SM CLR 32/23 A3006 RMK A01
KHHV 131715Z AUTO 12008KT 080V140 10SM CLR 31/23 A3006 RMK A01
KHHV 131655Z AUTO 13009KT 10SM CLR 31/23 A3006 RMK A01
KHHV 131635Z AUTO 15008KT 10SM CLR 30/22 A3006 RMK A01
KHHV 131615Z AUTO 15009KT 10SM CLR 30/21 A3006 RMK A01
KHHV 131555Z AUTO 15012KT 10SM CLR 30/22 A3006 RMK A01
KHHV 131535Z AUTO 15015KT 10SM FEW024 30/23 A3006 RMK A01
KHHV 131515Z AUTO 12008G13KT 080V160 10SM CLR 30/23 A3005 RMK A01
KHHV 131455Z AUTO 13009KT 10SM FEW022 SCT027 SCT034 29/23 A3005 RMK A01
KHHV 131435Z AUTO 13009KT 10SM SCT022 29/24 A3004 RMK A01
KHHV 131415Z AUTO 13009G18KT 10SM CLR 29/24 A3004 RMK A01
KHHV 131355Z AUTO 13012KT 10SM FEW024 FEW120 29/23 A3004 RMK A01
KHHV 131335Z AUTO 14007G16KT 100V170 10SM CLR 29/23 A3003 RMK A01
KHHV 131315Z AUTO 13013KT 10SM CLR 29/23 A3003 RMK A01
KHHV 131255Z AUTO 13013KT 10SM FEW022 FEW036 29/23 A3001 RMK A01
KHHV 131235Z AUTO 13010G16KT 090V160 10SM FEW021 FEW040 29/24 A3001 RMK A01
KHHV 131215Z AUTO 13010G18KT 10SM FEW024 28/24 A3001 RMK A01
KHHV 131155Z AUTO 14011G16KT 090V190 10SM FEW025 28/24 A3000 RMK A01
KHHV 131135Z AUTO 13007G15KT 080V160 10SM FEW021 FEW026 28/24 A3000 RMK A01
KHHV 131115Z AUTO 13010G16KT 10SM FEW023 FEW034 28/24 A2999 RMK A01
KHHV 131055Z AUTO 13013KT 10SM CLR 28/24 A2998 RMK A01
KHHV 131035Z AUTO 15013KT 10SM CLR 28/23 A2998 RMK A01
KHHV 131015Z AUTO 15015KT 10SM FEW023 FEW028 28/23 A2998 RMK A01
KHHV 130955Z AUTO 14014KT 10SM CLR 28/23 A2998 RMK A01
KHHV 130935Z AUTO 13012G18KT 10SM FEW025 28/23 A2998 RMK A01
KHHV 130915Z AUTO 14011G19KT 10SM CLR 28/24 A2998 RMK A01
KHHV 130855Z AUTO 14014G19KT 10SM FEW029 FEW037 FEW046 28/23 A2998 RMK A01
KHHV 130835Z AUTO 13010G21KT 110V170 10SM FEW005 SCT025 BKN042 27/24 A2998 RMK A01
KHHV 130815Z AUTO 12016G25KT 3SM HZ FEW005 BKN026 BKN060 27/23 A2998 RMK A01
KHHV 130755Z AUTO 14013G20KT 10SM FEW021 SCT026 BKN090 28/24 A2999 RMK A01
KHHV 130735Z AUTO 14013G18KT 10SM 29/24 A2999 RMK A01
KHHV 130715Z AUTO 14014G20KT 10SM 29/24 A2999 RMK A01
KHHV 130655Z AUTO 13010G18KT 10SM FEW025 SCT040 SCT049 29/24 A2999 RMK A01
KHHV 130635Z AUTO 13010G18KT 080V170 10SM 29/24 A2999 RMK A01
KHHV 130615Z AUTO 13014G20KT FEW021 29/24 A2999 RMK A01
KHHV 130555Z AUTO 13013G20KT 10SM SCT020 SCT025 29/24 A2999 RMK A01
KHHV 130535Z AUTO 14007G19KT 090V180 10SM SCT020 29/24 A3000 RMK A01
KHHV 130515Z AUTO 13009G19KT 030V190 10SM BKN020 29/24 A3000 RMK A01
KHHV 130455Z AUTO 13012G17KT 10SM SCT020 29/24 A3000 RMK A01
KHHV 130435Z AUTO 13009G19KT 080V170 10SM SCT019 29/24 A3000 RMK A01
KHHV 130415Z AUTO 13008G16KT 080V160 10SM BKN019 BKN027 BKN120 29/25 A3000 RMK A01
KHHV 130355Z AUTO 13011G19KT 100V160 10SM SCT020 BKN026 BKN120 29/25 A3000 RMK A01
KHHV 130335Z AUTO 13010G18KT 090V180 10SM FEW020 29/24 A2999 RMK A01
KHHV 130315Z AUTO 12010G18KT 070V150 10SM SCT020 SCT025 29/25 A2998 RMK A01
KHHV 130255Z AUTO 12009G16KT 060V160 10SM SCT020 SCT025 29/25 A2998 RMK A01
KHHV 130235Z AUTO 12010G17KT 090V150 10SM BKN019 29/25 A2997 RMK A01
KHHV 130215Z AUTO 13010G17KT 100V180 10SM 29/25 A2996 RMK A01
KHHV 130155Z AUTO 13010G16KT 10SM 29/24 A2995 RMK A01
KHHV 130135Z AUTO 13009G16KT 070V170 10SM CLR 29/24 A2995 RMK A01
KHHV 130115Z AUTO 13010G17KT 10SM CLR 29/24 A2994 RMK A01
KHHV 130055Z AUTO 13010G16KT 10SM CLR 29/24 A2993 RMK A01
KHHV 130035Z AUTO 13008G16KT 080V170 10SM CLR 29/24 A2993 RMK A01
KHHV 130015Z AUTO 13008G17KT 090V160 10SM FEW020 30/24 A2993 RMK A01
KHHV 122355Z AUTO 14011G17KT 10SM SCT019 30/24 A2993 RMK A01
KHHV 122335Z AUTO 13011KT 10SM SCT019 30/25 A2994 RMK A01
KHHV 122315Z AUTO 14009G17KT 10SM FEW020 30/25 A2994 RMK A01
KHHV 122255Z AUTO 15016KT 10SM CLR 30/24 A2994 RMK A01
KHHV 122235Z AUTO 13010G18KT CLR 30/25 A2994 RMK A01
KHHV 122215Z AUTO 14012KT 10SM CLR 30/24 A2994 RMK A01
KHHV 122155Z AUTO 14011KT 10SM CLR 30/25 A2995 RMK A01
KHHV 122135Z AUTO 13011G17KT 10SM CLR 30/25 A2995 RMK A01
KHHV 122115Z AUTO 14013KT 10SM FEW018 31/25 A2996 RMK A01
KHHV 122055Z AUTO 13009G17KT 100V180 10SM CLR 32/25 A2997 RMK A01
KHHV 122035Z AUTO 13010G17KT 110V170 10SM CLR 32/25 A2997 RMK A01
KHHV 122015Z AUTO 13008G15KT 040V160 10SM CLR 31/24 A2997 RMK A01
KHHV 121955Z AUTO 13009G17KT 10SM CLR 31/24 A2998 RMK A01
KHHV 121935Z AUTO 14011G17KT 10SM FEW024 FEW031 31/24 A2999 RMK A01
KHHV 121915Z AUTO 14011KT 10SM FEW023 31/24 A3000 RMK A01
KHHV 121855Z AUTO 14012KT 10SM FEW023 31/24 A3000 RMK A01
KHHV 121835Z AUTO 14010G16KT 10SM FEW023 FEW028 31/24 A3001 RMK A01
KHHV 121815Z AUTO 14012KT 10SM CLR 31/23 A3000 RMK A01
KHHV 121755Z AUTO 15014KT 10SM CLR 30/23 A3000 RMK A01
KHHV 121735Z AUTO 14010G18KT 10SM CLR 31/24 A3000 RMK A01
KHHV 121715Z AUTO 15013G19KT 10SM CLR 30/24 A2999 RMK A01
KHHV 121655Z AUTO 15014KT 10SM CLR 31/24 A3000 RMK A01
KHHV 121635Z AUTO 14011G18KT 10SM CLR 30/23 A2999 RMK A01
KHHV 121615Z AUTO 15013KT 10SM CLR 30/24 A2999 RMK A01
KHHV 121555Z AUTO 15015KT 10SM CLR 30/23 A2999 RMK A01
KHHV 121535Z AUTO 15015KT 10SM CLR 30/23 A2999 RMK A01
KHHV 121515Z AUTO 15016KT 10SM CLR 29/23 A3000 RMK A01
KHHV 121455Z AUTO 15016KT 10SM CLR 29/23 A3000 RMK A01
KHHV 121435Z AUTO 16015G21KT 10SM FEW024 29/23 A2999 RMK A01
KHHV 121415Z AUTO 15016KT 10SM FEW024 29/23 A2999 RMK A01
KHHV 121355Z AUTO 15013G19KT 10SM CLR 29/23 A2998 RMK A01
KHHV 121335Z AUTO 16016KT 10SM CLR 29/23 A2998 RMK A01
KHHV 121315Z AUTO 16011G20KT 10SM CLR 29/23 A2997 RMK A01
KHHV 121255Z AUTO 15014G21KT 10SM CLR 29/23 A2996 RMK A01
KHHV 121235Z AUTO 16015G22KT 10SM CLR 29/23 A2995 RMK A01
KHHV 121215Z AUTO 16012G19KT 10SM CLR 28/23 A2995 RMK A01
KHHV 121155Z AUTO 15015G21KT 10SM FEW022 FEW029 28/23 A2994 RMK A01
KHHV 121135Z AUTO 15014G23KT 10SM 28/24 A2993 RMK A01
KHHV 121115Z AUTO 16013G24KT 10SM 28/23 A2992 RMK A01
KHHV 121055Z AUTO 15019KT 10SM 28/24 A2992 RMK A01
KHHV 121035Z AUTO 15020G26KT 10SM 28/24 A2991 RMK A01
KHHV 121015Z AUTO 15018G25KT 10SM 28/24 A2991 RMK A01
KHHV 120955Z AUTO 15019G26KT 10SM 28/24 A2991 RMK A01
KHHV 120935Z AUTO 15018G24KT 10SM 28/24 A2991 RMK A01
KHHV 120915Z AUTO 15018KT 10SM 28/24 A2991 RMK A01
KHHV 120855Z AUTO 15017KT 10SM 28/24 A2991 RMK A01
KHHV 120835Z AUTO 15018G23KT 10SM 28/23 A2992 RMK A01
KHHV 120755Z AUTO 15016KT 10SM 29/24 A2992 RMK A01
KHHV 120735Z AUTO 16015G22KT 10SM 28/23 A2993 RMK A01
KHHV 120655Z AUTO 15018G23KT 10SM 29/23 A2993 RMK A01
KHHV 120635Z AUTO 15019KT 10SM 28/23 A2993 RMK A01
KHHV 120615Z AUTO 14017G22KT 10SM 28/23 A2994 RMK A01
KHHV 120555Z AUTO 14016G22KT 10SM 29/24 A2993 RMK A01
KHHV 120535Z AUTO 15018G24KT 10SM 29/24 A2994 RMK A01
KHHV 120515Z AUTO 15019KT 10SM 29/24 A2994 RMK A01
KHHV 120455Z AUTO 15017KT 10SM FEW023 29/24 A2993 RMK A01
KHHV 120435Z AUTO 15014G20KT 10SM CLR 29/24 A2994 RMK A01
KHHV 120415Z AUTO 15015KT 10SM FEW023 29/24 A2993 RMK A01
KHHV 120355Z AUTO 15016KT 10SM SCT022 BKN027 BKN032 29/23 A2993 RMK A01
KHHV 120335Z AUTO 15016KT 10SM FEW020 BKN027 BKN031 29/24 A2993 RMK A01
KHHV 120315Z AUTO 15013G18KT 10SM BKN026 BKN030 29/24 A2992 RMK A01
KHHV 120255Z AUTO 15015KT 10SM SCT021 BKN027 29/24 A2991 RMK A01
KHHV 120235Z AUTO 15014KT 10SM SCT020 BKN026 BKN031 29/24 A2990 RMK A01
KHHV 120215Z AUTO 14014KT 10SM SCT021 BKN026 BKN031 29/24 A2990 RMK A01
KHHV 120155Z AUTO 14014KT 10SM SCT020 BKN027 BKN033 29/24 A2989 RMK A01
KHHV 120135Z AUTO 15015KT 10SM SCT019 29/24 A2989 RMK A01
KHHV 120115Z AUTO 15011G20KT 10SM FEW022 29/24 A2989 RMK A01
KHHV 120055Z AUTO 16011G18KT 10SM CLR 29/24 A2989 RMK A01
KHHV 120035Z AUTO 16014KT 10SM FEW020 FEW027 29/24 A2988 RMK A01
KHHV 120015Z AUTO 16009G17KT 10SM CLR 29/24 A2987 RMK A01
KHHV 112355Z AUTO 16010G17KT 10SM FEW021 29/24 A2987 RMK A01
KHHV 112335Z AUTO 16011G19KT 10SM FEW028 29/24 A2987 RMK A01
KHHV 112315Z AUTO 16009G18KT 10SM FEW026 29/24 A2987 RMK A01
KHHV 112255Z AUTO 16009G17KT 10SM CLR 29/24 A2987 RMK A01
KHHV 112235Z AUTO 16012G18KT 10SM FEW020 29/24 A2987 RMK A01
KHHV 112215Z AUTO 18016KT 10SM FEW019 FEW025 29/25 A2987 RMK A01
KHHV 112155Z AUTO 17014G20KT 10SM FEW023 FEW029 29/24 A2987 RMK A01
KHHV 112135Z AUTO 16009G18KT 10SM FEW023 FEW029 29/24 A2987 RMK A01
KHHV 112115Z AUTO 17012G20KT 10SM FEW021 FEW027 29/24 A2988 RMK A01
KHHV 112055Z AUTO 16011KT 10SM FEW021 FEW027 29/24 A2989 RMK A01
KHHV 112035Z AUTO 16010G16KT 10SM CLR 29/24 A2990 RMK A01
KHHV 112015Z AUTO 16009G19KT 10SM CLR 30/24 A2990 RMK A01
KHHV 111955Z AUTO 16014G19KT 10SM CLR 30/24 A2991 RMK A01
KHHV 111935Z AUTO 16012G20KT 130V200 10SM CLR 30/24 A2991 RMK A01
KHHV 111915Z AUTO 17013KT 140V200 10SM CLR 30/24 A2992 RMK A01
KHHV 111855Z AUTO 16010G19KT 10SM CLR 30/24 A2993 RMK A01
KHHV 111835Z AUTO 18017KT 10SM CLR 29/24 A2994 RMK A01
KHHV 111815Z AUTO 17016KT 10SM CLR 29/24 A2994 RMK A01
KHHV 111755Z AUTO 17013G19KT 10SM FEW024 30/24 A2994 RMK A01
KHHV 111735Z AUTO 17010G19KT 10SM CLR 30/24 A2995 RMK A01
KHHV 111715Z AUTO 17015KT 10SM CLR 29/23 A2995 RMK A01
KHHV 111655Z AUTO 17012G22KT 10SM CLR 30/23 A2995 RMK A01
KHHV 111635Z AUTO 16011G21KT 10SM FEW024 30/24 A2995 RMK A01
KHHV 111615Z AUTO 17015G20KT 10SM CLR 30/23 A2995 RMK A01
KHHV 111555Z AUTO 17018KT 10SM CLR 29/23 A2995 RMK A01
KHHV 111535Z AUTO 17010KT 10SM CLR 29/23 A2995 RMK A01
KHHV 111515Z AUTO 17017KT 10SM CLR 29/23 A2995 RMK A01
KHHV 111455Z AUTO 16011G20KT 10SM CLR 29/24 A2995 RMK A01
KHHV 111435Z AUTO 17013G21KT 10SM FEW026 29/23 A2995 RMK A01
KHHV 111415Z AUTO 18019KT 10SM CLR 29/23 A2994 RMK A01
KHHV 111355Z AUTO 18020KT 10SM CLR 29/23 A2994 RMK A01
KHHV 111335Z AUTO 18017G24KT 10SM CLR 29/23 A2994 RMK A01
KHHV 111315Z AUTO 17019G25KT 10SM FEW025 FEW031 29/23 A2993 RMK A01
KHHV 111255Z AUTO 18018KT 10SM FEW025 SCT030 29/24 A2992 RMK A01
KHHV 111235Z AUTO 17017G22KT 10SM FEW029 29/23 A2992 RMK A01
KHHV 111215Z AUTO 17013G20KT 10SM CLR 28/23 A2990 RMK A01
KHHV 111155Z AUTO 17015G25KT 10SM FEW023 28/23 A2990 RMK A01
KHHV 111135Z AUTO 16013G21KT 10SM 28/23 A2990 RMK A01
KHHV 111115Z AUTO 16013G22KT 10SM 28/23 A2990 RMK A01
KHHV 111055Z AUTO 16013G23KT 10SM 28/23 A2989 RMK A01
KHHV 111035Z AUTO 15014G21KT 10SM 28/23 A2989 RMK A01
KHHV 111015Z AUTO 16014G22KT 10SM 28/24 A2989 RMK A01
KHHV 110955Z AUTO 16011G24KT 10SM 28/24 A2989 RMK A01
KHHV 110935Z AUTO 16011G19KT 10SM 28/24 A2989 RMK A01
KHHV 110915Z AUTO 17018KT 10SM 28/24 A2989 RMK A01
KHHV 110855Z AUTO 15018G25KT 10SM 28/24 A2989 RMK A01
KHHV 110835Z AUTO 16014G25KT 10SM 28/24 A2989 RMK A01
KHHV 110815Z AUTO 16014G21KT 10SM 28/24 A2989 RMK A01
KHHV 110755Z AUTO 16017G23KT 10SM 28/24 A2990 RMK A01
KHHV 110735Z AUTO 17016G26KT 10SM 28/24 A2991 RMK A01
KHHV 110715Z AUTO 17014G25KT 28/24 A2991 RMK A01
KHHV 110655Z AUTO 17015G20KT 10SM 28/24 A2991 RMK A01
KHHV 110635Z AUTO 17014G21KT 10SM 28/25 A2991 RMK A01
KHHV 110615Z AUTO 17013G21KT 140V200 10SM 28/24 A2992 RMK A01
KHHV 110555Z AUTO 16012G22KT 10SM 29/25 A2993 RMK A01
KHHV 110535Z AUTO 16013G22KT 10SM 29/25 A2993 RMK A01
KHHV 110515Z AUTO 16013G18KT 10SM SCT020 SCT031 29/24 A2993 RMK A01
KHHV 110455Z AUTO 15015G23KT 10SM SCT017 29/25 A2993 RMK A01
KHHV 110435Z AUTO 16014G23KT 10SM FEW017 29/25 A2993 RMK A01
KHHV 110415Z AUTO 16013G22KT 10SM CLR 29/25 A2994 RMK A01
KHHV 110355Z AUTO 16015G20KT 10SM FEW019 FEW026 29/25 A2995 RMK A01
KHHV 110335Z AUTO 15015KT 10SM FEW026 FEW032 29/25 A2995 RMK A01
KHHV 110315Z AUTO 16010G18KT 10SM FEW022 SCT028 SCT032 29/25 A2995 RMK A01
KHHV 110255Z AUTO 16013G19KT 10SM FEW020 FEW029 29/25 A2994 RMK A01
KHHV 110235Z AUTO 16009G18KT 10SM FEW018 FEW023 29/25 A2993 RMK A01
KHHV 110215Z AUTO 17009G17KT 10SM CLR 29/25 A2993 RMK A01
KHHV 110155Z AUTO 16010G15KT 10SM 29/25 A2992 RMK A01
KHHV 110135Z AUTO 15016KT 10SM 29/25 A2992 RMK A01
KHHV 110115Z AUTO 16011G18KT 10SM FEW018 29/25 A2992 RMK A01
KHHV 110055Z AUTO 17008G16KT 10SM CLR 29/25 A2992 RMK A01
KHHV 110035Z AUTO 16010G16KT 10SM FEW019 FEW030 29/25 A2992 RMK A01
KHHV 110015Z AUTO 15010G15KT 10SM FEW019 29/25 A2992 RMK A01
KHHV 102355Z AUTO 16009G14KT 10SM CLR 29/25 A2992 RMK A01
KHHV 102335Z AUTO 16009G16KT 140V200 10SM CLR 29/25 A2993 RMK A01
KHHV 102315Z AUTO 16007G16KT 10SM CLR 29/25 A2993 RMK A01
KHHV 102255Z AUTO 17011G16KT 10SM FEW021 FEW029 29/24 A2993 RMK A01
KHHV 102235Z AUTO 16010G17KT 10SM FEW021 SCT029 29/24 A2993 RMK A01
KHHV 102215Z AUTO 17013G18KT 10SM FEW021 SCT030 29/24 A2993 RMK A01
KHHV 102155Z AUTO 17010G17KT 10SM SCT022 SCT029 SCT034 29/24 A2994 RMK A01
KHHV 102135Z AUTO 17011G18KT 10SM CLR 29/24 A2994 RMK A01
KHHV 102115Z AUTO 17013KT 10SM FEW023 SCT028 29/24 A2994 RMK A01
KHHV 102055Z AUTO 17010G16KT 10SM FEW023 29/24 A2995 RMK A01
KHHV 102035Z AUTO 16008G14KT 10SM CLR 29/24 A2995 RMK A01
KHHV 102015Z AUTO 15006G14KT 10SM CLR 30/24 A2995 RMK A01
KHHV 101955Z AUTO 17011KT 10SM CLR 30/24 A2996 RMK A01
KHHV 101935Z AUTO 17011G16KT 10SM CLR 30/24 A2997 RMK A01
KHHV 101915Z AUTO 18015KT 10SM CLR 30/24 A2998 RMK A01
KHHV 101855Z AUTO 18012G17KT 150V210 10SM CLR 30/24 A2998 RMK A01
KHHV 101835Z AUTO 18013KT 10SM CLR 30/23 A2999 RMK A01
KHHV 101815Z AUTO 19013KT 10SM CLR 30/24 A2999 RMK A01
KHHV 101755Z AUTO 18014G20KT 10SM CLR 30/23 A2999 RMK A01
KHHV 101735Z AUTO 17015KT 10SM CLR 30/24 A2999 RMK A01
KHHV 101715Z AUTO 18017KT 10SM CLR 29/24 A3000 RMK A01
KHHV 101655Z AUTO 19013KT 10SM CLR 29/24 A3000 RMK A01
KHHV 101635Z AUTO 19012G18KT 10SM CLR 29/24 A3000 RMK A01
KHHV 101615Z AUTO 19011G17KT 10SM CLR 29/24 A3000 RMK A01
KHHV 101555Z AUTO 18017KT 10SM CLR 29/24 A3000 RMK A01
KHHV 101535Z AUTO 19016KT 10SM CLR 29/24 A3000 RMK A01
KHHV 101515Z AUTO 19013G20KT 10SM FEW022 29/24 A3000 RMK A01
KHHV 101455Z AUTO 19016G22KT 10SM FEW023 29/23 A3001 RMK A01
KHHV 101435Z AUTO 18019KT 10SM CLR 28/24 A3001 RMK A01
KHHV 101415Z AUTO 17018KT 10SM CLR 28/23 A3001 RMK A01
KHHV 101355Z AUTO 17014G21KT 10SM FEW021 28/23 A3001 RMK A01
KHHV 101335Z AUTO 17013KT 10SM SCT020 28/24 A3001 RMK A01
KHHV 101315Z AUTO 17011G19KT 10SM FEW022 28/23 A3000 RMK A01
KHHV 101255Z AUTO 17010G20KT 10SM FEW023 28/23 A3000 RMK A01
KHHV 101235Z AUTO 16010G19KT 140V200 10SM FEW022 28/23 A3000 RMK A01
KHHV 101215Z AUTO 16013G21KT 10SM CLR 28/23 A2999 RMK A01
KHHV 101155Z AUTO 16010G22KT 10SM FEW022 28/23 A2999 RMK A01
KHHV 101135Z AUTO 15012G20KT 10SM CLR 28/23 A2999 RMK A01
KHHV 101115Z AUTO 16012G19KT 10SM 28/23 A2999 RMK A01
KHHV 101055Z AUTO 17010G17KT 10SM CLR 28/23 A2999 RMK A01
KHHV 101035Z AUTO 17010G20KT 10SM FEW022 28/23 A2998 RMK A01
KHHV 101015Z AUTO 18019KT 10SM SCT022 28/23 A2998 RMK A01
KHHV 100955Z AUTO 18020KT 10SM CLR 28/23 A2998 RMK A01
KHHV 100935Z AUTO 18019G25KT 10SM CLR 28/23 A2998 RMK A01
KHHV 100915Z AUTO 18021KT 10SM SCT021 28/23 A2999 RMK A01
KHHV 100855Z AUTO 18021KT 10SM BKN022 28/24 A2999 RMK A01
KHHV 100835Z AUTO 17017G23KT 10SM 28/24 A2999 RMK A01
KHHV 100815Z AUTO 17020KT 10SM FEW018 FEW035 28/24 A2998 RMK A01
KHHV 100755Z AUTO 16012G21KT 140V200 10SM BKN018 BKN027 BKN035 28/23 A2998 RMK A01
KHHV 100735Z AUTO 16009G22KT 10SM FEW019 FEW028 28/25 A2998 RMK A01
KHHV 100715Z AUTO 16015G21KT 10SM CLR 28/24 A2999 RMK A01
KHHV 100655Z AUTO 15015G20KT 10SM FEW018 FEW024 28/24 A2999 RMK A01
KHHV 100635Z AUTO 16009G17KT 10SM SCT019 SCT024 29/25 A3001 RMK A01
KHHV 100615Z AUTO 15012KT 10SM FEW018 SCT025 29/24 A3001 RMK A01
KHHV 100555Z AUTO 17008KT 140V200 10SM CLR 29/25 A3002 RMK A01
KHHV 100535Z AUTO 17010G15KT 10SM CLR 28/24 A3002 RMK A01
KHHV 100515Z AUTO 15012KT 10SM CLR 28/25 A3003 RMK A01
KHHV 100455Z AUTO 15010KT 10SM CLR 28/25 A3003 RMK A01
KHHV 100435Z AUTO 15011KT 10SM CLR 28/25 A3003 RMK A01
KHHV 100415Z AUTO 14009KT 10SM CLR 28/25 A3003 RMK A01
KHHV 100355Z AUTO 15012KT 10SM FEW016 FEW024 28/25 A3003 RMK A01
KHHV 100335Z AUTO 16013KT 10SM FEW022 29/25 A3003 RMK A01
KHHV 100315Z AUTO 17014KT 10SM FEW021 29/23 A3002 RMK A01
KHHV 100255Z AUTO 16007KT 10SM CLR 28/24 A3002 RMK A01
KHHV 100235Z AUTO 15011KT 10SM CLR 28/25 A3002 RMK A01
KHHV 100215Z AUTO 16010KT 10SM CLR 28/24 A3001 RMK A01
KHHV 100155Z AUTO 14010KT 10SM CLR 28/24 A3001 RMK A01
KHHV 100135Z AUTO 15013G18KT 10SM CLR 28/23 A3001 RMK A01
KHHV 100115Z AUTO 15013G20KT 10SM FEW024 29/23 A3001 RMK A01
KHHV 100055Z AUTO 16011KT 10SM SCT023 29/24 A3001 RMK A01
KHHV 100035Z AUTO 16010G17KT 130V190 10SM FEW021 FEW027 29/24 A3001 RMK A01
KHHV 100015Z AUTO 16009G17KT 10SM FEW019 FEW026 29/25 A3002 RMK A01
KHHV 092355Z AUTO 16009G15KT 10SM CLR 30/25 A3001 RMK A01
KHHV 092335Z AUTO 16012G18KT 10SM FEW020 FEW025 FEW033 29/25 A3001 RMK A01
KHHV 092315Z AUTO 16012G18KT 10SM FEW020 30/25 A3001 RMK A01
KHHV 092255Z AUTO 15013KT 10SM FEW020 FEW029 30/25 A3002 RMK A01
KHHV 092235Z AUTO 15012KT 10SM FEW019 FEW029 30/26 A3002 RMK A01
KHHV 092215Z AUTO 15014KT 10SM CLR 30/25 A3002 RMK A01
KHHV 092155Z AUTO 15015KT 10SM FEW021 30/25 A3003 RMK A01
KHHV 092135Z AUTO 14010G17KT 10SM FEW021 30/25 A3004 RMK A01
KHHV 092115Z AUTO 14009G16KT 100V160 10SM FEW022 30/25 A3004 RMK A01
KHHV 092055Z AUTO 14012KT 10SM SCT023 30/25 A3004 RMK A01
KHHV 092035Z AUTO 15012KT 10SM FEW024 FEW030 30/25 A3004 RMK A01
KHHV 092015Z AUTO 15013KT 10SM FEW021 30/24 A3005 RMK A01
KHHV 091955Z AUTO 15014KT 10SM FEW023 31/25 A3005 RMK A01
KHHV 091935Z AUTO 15014KT 10SM FEW024 31/24 A3005 RMK A01
KHHV 091915Z AUTO 16011G17KT 10SM CLR 31/24 A3006 RMK A01
KHHV 091855Z AUTO 15012KT 10SM FEW022 FEW028 FEW037 30/24 A3007 RMK A01
KHHV 091835Z AUTO 15013KT 10SM FEW022 FEW039 30/24 A3008 RMK A01
KHHV 091815Z AUTO 15012KT 10SM FEW030 FEW035 31/25 A3008 RMK A01
KHHV 091755Z AUTO 15011G17KT 10SM SCT030 SCT035 31/24 A3008 RMK A01
KHHV 091735Z AUTO 15013KT 10SM CLR 31/25 A3008 RMK A01
KHHV 091715Z AUTO 15013KT 10SM CLR 30/24 A3009 RMK A01
KHHV 091655Z AUTO 15014KT 10SM FEW024 FEW031 30/24 A3009 RMK A01
KHHV 091635Z AUTO 16009KT 10SM CLR 30/24 A3009 RMK A01
KHHV 091615Z AUTO 15013KT 10SM CLR 30/24 A3009 RMK A01
KHHV 091555Z AUTO 14010G15KT FEW022 30/24 A3009 RMK A01
KHHV 091535Z AUTO 15011KT 10SM SCT022 30/24 A3008 RMK A01
KHHV 091515Z AUTO 16012KT 10SM CLR 29/24 A3008 RMK A01
KHHV 091455Z AUTO 16009G14KT 10SM FEW020 29/24 A3008 RMK A01
KHHV 091435Z AUTO 15010KT 10SM CLR 29/24 A3009 RMK A01
KHHV 091415Z AUTO 15010KT 10SM FEW021 29/24 A3009 RMK A01
KHHV 091355Z AUTO 14011KT 10SM FEW022 FEW030 FEW055 29/24 A3008 RMK A01
KHHV 091335Z AUTO 14007G15KT 10SM FEW019 FEW024 FEW055 29/24 A3008 RMK A01
KHHV 091315Z AUTO 15010G15KT 10SM FEW021 FEW031 29/24 A3007 RMK A01
KHHV 091255Z AUTO 15013KT 10SM CLR 29/24 A3006 RMK A01
KHHV 091235Z AUTO 15009G17KT 10SM FEW020 29/24 A3005 RMK A01
KHHV 091215Z AUTO 15012KT 10SM FEW021 29/24 A3005 RMK A01
KHHV 091155Z AUTO 16009G15KT 10SM FEW022 FEW026 SCT030 28/24 A3005 RMK A01
KHHV 091135Z AUTO 15011G17KT 10SM SCT024 SCT031 28/24 A3004 RMK A01
KHHV 091115Z AUTO 15010G15KT 10SM CLR 28/24 A3004 RMK A01
KHHV 091055Z AUTO 17008G15KT 140V200 10SM FEW019 28/24 A3004 RMK A01
KHHV 091035Z AUTO 16014KT 10SM CLR 28/24 A3004 RMK A01
KHHV 091015Z AUTO 16011G17KT 10SM FEW020 28/24 A3004 RMK A01
KHHV 090955Z AUTO 16013KT 10SM CLR 28/24 A3004 RMK A01
KHHV 090935Z AUTO 15013KT 10SM FEW030 FEW036 SCT044 28/25 A3003 RMK A01
KHHV 090915Z AUTO 16007G16KT 10SM CLR 28/24 A3003 RMK A01
KHHV 090855Z AUTO 15015KT 10SM FEW019 SCT024 SCT040 28/24 A3003 RMK A01
KHHV 090835Z AUTO 15013KT 10SM SCT020 BKN026 BKN036 29/24 A3004 RMK A01
KHHV 090815Z AUTO 15013KT 10SM FEW023 SCT028 28/24 A3004 RMK A01
KHHV 090755Z AUTO 15014KT 10SM CLR 29/24 A3004 RMK A01
KHHV 090735Z AUTO 15013G18KT 10SM FEW020 29/24 A3004 RMK A01
KHHV 090715Z AUTO 14012G17KT 10SM FEW019 29/25 A3004 RMK A01
KHHV 090655Z AUTO 14012G20KT 10SM FEW020 FEW031 FEW038 29/25 A3004 RMK A01
KHHV 090635Z AUTO 14012G18KT 10SM FEW019 FEW031 FEW038 29/25 A3005 RMK A01
KHHV 090615Z AUTO 14012KT 10SM FEW020 FEW028 FEW035 29/24 A3005 RMK A01
KHHV 090555Z AUTO 13012G17KT 10SM FEW018 SCT024 SCT028 29/24 A3006 RMK A01
KHHV 090535Z AUTO 13012G19KT 10SM SCT019 SCT027 SCT034 29/25 A3005 RMK A01
KHHV 090515Z AUTO 13011G19KT 10SM FEW019 FEW034 29/24 A3005 RMK A01
KHHV 090455Z AUTO 13009G19KT 090V160 10SM FEW018 29/24 A3005 RMK A01
KHHV 090435Z AUTO 12010G17KT 080V150 10SM FEW019 29/24 A3005 RMK A01
KHHV 090415Z AUTO 13008G17KT 080V180 10SM SCT019 29/25 A3005 RMK A01
KHHV 090355Z AUTO 13009G17KT 060V160 10SM SCT020 29/24 A3005 RMK A01
KHHV 090335Z AUTO 12007G16KT 060V150 10SM SCT020 29/24 A3006 RMK A01
KHHV 090315Z AUTO 13009G16KT 060V150 10SM BKN021 29/24 A3005 RMK A01
KHHV 090255Z AUTO 13009G17KT 100V170 10SM FEW023 29/24 A3004 RMK A01
KHHV 090235Z AUTO 14007G17KT 110V180 10SM CLR 29/24 A3004 RMK A01
KHHV 090215Z AUTO 12009G16KT 070V160 10SM CLR 29/24 A3004 RMK A01
KHHV 090155Z AUTO 13009G17KT 10SM FEW021 29/24 A3004 RMK A01
KHHV 090135Z AUTO 12009G16KT 10SM FEW022 29/24 A3004 RMK A01
KHHV 090115Z AUTO 13009G15KT 090V180 SCT022 29/24 A3004 RMK A01
KHHV 090055Z AUTO 13008G14KT 10SM CLR 29/24 A3004 RMK A01
KHHV 090035Z AUTO 13009G14KT 10SM FEW022 30/24 A3004 RMK A01
KHHV 090015Z AUTO 13008G14KT 10SM CLR 30/24 A3004 RMK A01
KHHV 082355Z AUTO 12009KT 090V150 10SM CLR 30/24 A3004 RMK A01
KHHV 082335Z AUTO VRB05G12KT 10SM FEW027 30/24 A3004 RMK A01
KHHV 082315Z AUTO 13008KT 090V150 10SM SCT027 31/24 A3004 RMK A01
KHHV 082255Z AUTO 13008KT 10SM CLR 31/23 A3005 RMK A01
KHHV 082235Z AUTO 12007KT 10SM FEW025 31/23 A3005 RMK A01
KHHV 082215Z AUTO 12009KT 10SM FEW025 FEW030 31/23 A3005 RMK A01
KHHV 082155Z AUTO 12007KT 10SM FEW024 FEW030 31/24 A3005 RMK A01
KHHV 082135Z AUTO 13007KT 080V150 10SM CLR 31/24 A3005 RMK A01
KHHV 082115Z AUTO 13008KT 10SM CLR 31/23 A3005 RMK A01
KHHV 082055Z AUTO VRB06G12KT 10SM CLR 31/23 A3006 RMK A01
KHHV 082035Z AUTO 13007KT 10SM CLR 31/24 A3006 RMK A01
KHHV 082015Z AUTO 12008KT 10SM CLR 32/24 A3006 RMK A01
KHHV 081955Z AUTO 13007KT 10SM CLR 32/24 A3006 RMK A01
KHHV 081935Z AUTO 13007KT 10SM FEW023 FEW047 31/24 A3006 RMK A01
KHHV 081915Z AUTO 15010KT 10SM FEW022 FEW026 FEW033 31/23 A3007 RMK A01
KHHV 081855Z AUTO 15012KT 10SM SCT022 SCT033 32/24 A3006 RMK A01
KHHV 081835Z AUTO 13009G15KT 100V180 10SM FEW023 32/24 A3006 RMK A01
KHHV 081815Z AUTO 13011G16KT 10SM CLR 32/24 A3006 RMK A01
KHHV 081755Z AUTO VRB06G14KT 10SM FEW022 32/24 A3007 RMK A01
KHHV 081735Z AUTO 13008G14KT 100V160 10SM FEW021 32/24 A3008 RMK A01
KHHV 081715Z AUTO 13009G15KT 090V200 10SM CLR 32/24 A3008 RMK A01
KHHV 081655Z AUTO 13008G14KT 080V170 10SM FEW023 32/24 A3008 RMK A01
KHHV 081635Z AUTO 12010G16KT 10SM FEW024 32/24 A3008 RMK A01
KHHV 081615Z AUTO 12010G15KT 10SM FEW024 32/23 A3008 RMK A01
KHHV 081555Z AUTO 12010G17KT 10SM FEW024 31/23 A3007 RMK A01
KHHV 081535Z AUTO 11014KT 10SM CLR 31/23 A3007 RMK A01
KHHV 081515Z AUTO 11013KT 10SM CLR 30/23 A3006 RMK A01
KHHV 081455Z AUTO 11011KT 10SM CLR 30/24 A3006 RMK A01
KHHV 081435Z AUTO 11010KT 10SM CLR 29/24 A3006 RMK A01
KHHV 081415Z AUTO 11011KT 10SM CLR 30/24 A3006 RMK A01
KHHV 081355Z AUTO 11011KT 10SM CLR 29/23 A3006 RMK A01
KHHV 081335Z AUTO 11009KT 10SM CLR 29/23 A3006 RMK A01
KHHV 081315Z AUTO 12009KT 10SM CLR 29/24 A3005 RMK A01
KHHV 081255Z AUTO 12007KT 10SM CLR 29/24 A3005 RMK A01
KHHV 081235Z AUTO VRB06KT 080V150 10SM CLR 28/23 A3004 RMK A01
KHHV 081215Z AUTO 12007KT 10SM CLR 28/24 A3004 RMK A01
KHHV 081155Z AUTO 13009KT 10SM FEW021 FEW032 FEW050 28/23 A3003 RMK A01
KHHV 081135Z AUTO 14009KT 130V190 10SM SCT021 SCT032 SCT050 28/24 A3003 RMK A01
KHHV 081115Z AUTO 14009KT 10SM CLR 28/23 A3002 RMK A01
KHHV 081055Z AUTO 15012KT 10SM FEW022 28/23 A3001 RMK A01
KHHV 081035Z AUTO 14009G15KT 10SM FEW022 28/23 A3001 RMK A01
KHHV 081015Z AUTO 14012KT 10SM FEW021 FEW028 SCT049 28/23 A3000 RMK A01
KHHV 080955Z AUTO 14009KT 100V160 10SM BKN022 BKN028 28/24 A3000 RMK A01
KHHV 080935Z AUTO 14010G16KT 10SM SCT020 28/24 A3000 RMK A01
KHHV 080915Z AUTO 14011KT 10SM CLR 28/23 A2999 RMK A01
KHHV 080855Z AUTO 14012KT 10SM CLR 28/24 A2997 RMK A01
KHHV 080835Z AUTO 13012KT 10SM FEW021 FEW028 FEW035 28/24 A2997 RMK A01
KHHV 080815Z AUTO 13012KT FEW024 FEW029 SCT035 28/23 A2998 RMK A01
KHHV 080755Z AUTO 14011G17KT 10SM CLR 28/24 A2999 RMK A01
KHHV 080735Z AUTO 14013G18KT 10SM FEW020 28/23 A2998 RMK A01
KHHV 080715Z AUTO 13010G16KT 090V170 10SM FEW022 29/24 A3000 RMK A01
KHHV 080655Z AUTO VRB05G19KT 10SM FEW022 29/23 A3000 RMK A01
KHHV 080635Z AUTO 12011G17KT 10SM FEW022 29/23 A3000 RMK A01
KHHV 080615Z AUTO 13009G19KT 090V170 10SM CLR 29/23 A3000 RMK A01
KHHV 080555Z AUTO 13013G18KT 10SM CLR 29/24 A3001 RMK A01
KHHV 080535Z AUTO 12011G19KT 090V170 10SM CLR 29/23 A3001 RMK A01
KHHV 080515Z AUTO 12015KT 10SM CLR 29/23 A3001 RMK A01
KHHV 080455Z AUTO 12016KT 10SM CLR 29/23 A3001 RMK A01
KHHV 080435Z AUTO 11017KT 10SM CLR 29/23 A3001 RMK A01
KHHV 080415Z AUTO 11014KT 10SM CLR 29/23 A3001 RMK A01
KHHV 080355Z AUTO 11015KT 10SM CLR 29/24 A3001 RMK A01
KHHV 080335Z AUTO 11016KT 10SM CLR 29/23 A3001 RMK A01
KHHV 080315Z AUTO 11016KT 10SM CLR 29/23 A3001 RMK A01
KHHV 080255Z AUTO 11015KT 10SM CLR 29/23 A3000 RMK A01
KHHV 080235Z AUTO 12014KT 10SM CLR 29/24 A2999 RMK A01
KHHV 080215Z AUTO 12014KT 10SM FEW023 29/24 A2999 RMK A01
KHHV 080155Z AUTO 12012KT 10SM SCT023 SCT028 29/24 A2998 RMK A01
KHHV 080135Z AUTO 12012KT 10SM SCT023 SCT028 29/24 A2998 RMK A01
KHHV 080115Z AUTO 11013KT 10SM CLR 29/23 A2998 RMK A01
KHHV 080055Z AUTO 12012KT FEW023 30/23 A2997 RMK A01
KHHV 080035Z AUTO 11013KT 10SM FEW023 30/23 A2997 RMK A01
KHHV 080015Z AUTO 12010KT 10SM CLR 30/24 A2997 RMK A01
KHHV 072355Z AUTO 12008G13KT 090V150 10SM FEW024 SCT033 30/24 A2997 RMK A01